Vanguard U.S. Quality Factor ETF (VFQY).

Fund Category: All Cap Equities   Holdings: 652

ETF Stats:

Transaction Count Buy Ratios

Previous Day:0.0
Past 7 Days:no transactions
Past 30 Days:no transactions
Past 365 Days:0.054

Purchase Transaction Counts

Previous Day:2
Past 7 Days:0
Past 30 Days:0
Past 365 Days:312

Sale Transaction Counts

Previous Day:11
Past 7 Days:0
Past 30 Days:0
Past 365 Days:5823

Value Transacted Buy Ratios

Previous Day:0.012
Past 7 Days:no transactions
Past 30 Days:no transactions
Past 365 Days:0.008

Value Transacted Purchase Totals

Previous Day:82343.8
Past 7 Days:0
Past 30 Days:0
Past 365 Days:107008357.95464556

Value Transacted Sale Totals

Previous Day:7011937.158000002
Past 7 Days:0
Past 30 Days:0
Past 365 Days:13413253935.922602

Most Recent Transactions

Found 83570 transactions:


Date Issuer Trading Symbol Issuer Name Reporting Owner Name Officer Title Purchase or Sale Transaction Shares Transaction Price per Share Value Transacted
11/18/2021 ZEN Zendesk, Inc. Abildgaard Soren EVP of Engineering S 251.0 102.65 25765.15
11/18/2021 OFIX Orthofix Medical Inc. Serbousek Jon Carl CEO P 1670.0 31.14 52003.8
11/18/2021 OFIX Orthofix Medical Inc. Elting Kimberley A. Chief Legal & Develop. Officer P 1000.0 30.34 30340.0
11/18/2021 UMBF UMB FINANCIAL CORP KEMPER J MARINER Chairman and CEO S 100.0 106.66 10666.0
11/18/2021 UMBF UMB FINANCIAL CORP Wilson Uma Executive Vice President S 275.0 106.975 29418.125
11/18/2021 HPQ HP INC CHO ALEX President, Personal Systems S 38411.0 31.04 1192277.44
11/17/2021 NEWR NEW RELIC, INC. Friedrichs Kristy Chief Operating Officer S 5814.0 127.78 742912.92
11/17/2021 FIX COMFORT SYSTEMS USA INC Tang Vance W None S 1939.0 102.25 198262.75
11/17/2021 AOS SMITH A O CORP Rajendra Ajita G None S 44620.0 82.2853 3671570.086
11/17/2021 GGG GRACO INC Chambers Caroline M President, EMEA S 8234.0 77.7055 639827.087
11/17/2021 NSIT INSIGHT ENTERPRISES INC LAMNECK KENNETH T Chief Executive Officer S 3000.0 103.8837 311651.10000000003
11/17/2021 ZEN Zendesk, Inc. McDermott Adrian Chief Technology Officer S 837.0 104.5 87466.5
11/17/2021 WWW WOLVERINE WORLD WIDE INC /DE/ Klimek Amy M. Sr. VP of Human Resources S 3000.0 34.04 102120.0
11/16/2021 EGHT 8X8 INC /DE/ Wilson Samuel C. Chief Financial Officer S 117.0 22.624 2647.008
11/16/2021 NEWR NEW RELIC, INC. Sachleben Mark Chief Financial Officer S 1692.0 120.42 203750.64
11/16/2021 BL BLACKLINE, INC. Tucker Therese Executive Chair S 14766.0 124.1983 1833912.0978
11/16/2021 KWR QUAKER CHEMICAL CORP Shannon Michael J None S 620.0 268.53 166488.59999999998
11/16/2021 NEWR NEW RELIC, INC. Cirne Lewis Executive Chairman S 534.0 120.34 64261.560000000005
11/16/2021 FFIV F5, INC. WHALEN CHAD MICHAEL EVP, Worldwide Sales S 1898.0 230.31 437128.38
11/16/2021 HUBS HUBSPOT INC Shah Dharmesh Chief Technology Officer S 200.0 824.19 164838.0
11/16/2021 NEWR NEW RELIC, INC. Staples William Chief Executive Officer S 1920.0 120.41 231187.19999999998
11/16/2021 HUBS HUBSPOT INC Halligan Brian Executive Chair S 100.0 823.05 82305.0
11/16/2021 NEWR NEW RELIC, INC. Friedrichs Kristy Chief Operating Officer S 1583.0 120.46 190688.18
11/16/2021 ENPH Enphase Energy, Inc. RANHOFF DAVID A EVP & Chief Commercial Officer S 66272.0 244.1008 16177048.2176
11/16/2021 AX Axos Financial, Inc. Constantine Thomas M None S 2000.0 59.88 119760.0
11/16/2021 ECL ECOLAB INC. Mulhere Timothy P EVP & PRES - GLOBAL INST S 5920.0 235.664 1395130.88
11/16/2021 TNET TRINET GROUP, INC. Goldfield Burton M. PRESIDENT, CEO and DIRECTOR S 405.0 106.6285 43184.5425
11/16/2021 WWW WOLVERINE WORLD WIDE INC /DE/ Stornant Michael D Senior VP, CFO and Treasurer S 10608.0 34.1 361732.8
11/16/2021 PII Polaris Inc. Speetzen Michael T CEO S 24500.0 125.0 3062500.0
11/16/2021 PG PROCTER & GAMBLE Co Taylor David S Executive Chairman S 50000.0 148.0 7400000.0
11/16/2021 PG PROCTER & GAMBLE Co Coombe Gary A CEO - Grooming S 15000.0 148.0701 2221051.5
11/16/2021 WWW WOLVERINE WORLD WIDE INC /DE/ GERBER WILLIAM K None S 5662.0 34.24 193866.88
11/16/2021 NATI NATIONAL INSTRUMENTS CORP Rust Scott Arthur Executive Vice President S 8832.0 45.24 399559.68
11/16/2021 TDY TELEDYNE TECHNOLOGIES INC Cibik Melanie Susan Sr.VP, GenCounsel, CCO & Sec. S 2000.0 450.0 900000.0
11/16/2021 CVX CHEVRON CORP Wirth Michael K Chairman and CEO S 26250.0 118.0122 3097820.25
11/16/2021 SWKS SKYWORKS SOLUTIONS, INC. Durham Karilee A SVP, Human Resources S 100.0 162.64 16263.999999999998
11/16/2021 SPSC SPS COMMERCE INC WEHRWEIN SVEN None S 2362.0 149.2941 352632.66419999994
11/16/2021 CRI CARTERS INC Westenberger Richard F. EVP and CFO S 6000.0 110.36 662160.0
11/16/2021 GPS GAP INC Syngal Sonia CEO Gap, Inc. S 6945.0 24.7128 171630.396
11/16/2021 SXI STANDEX INTERNATIONAL CORP/DE/ CANNON CHARLES H JR None S 9278.0 116.3705 1079685.499
11/16/2021 POWI POWER INTEGRATIONS INC Matthews David MH VP of Product Development S 2500.0 108.0129 270032.25
11/16/2021 EXPE Expedia Group, Inc. Soliday Lance A Chief Accounting Officer S 376.0 177.36 66687.36
11/16/2021 PYPL PayPal Holdings, Inc. Karbowski Jeffrey William VP, Chief Accounting Officer S 1800.0 215.0 387000.0
11/16/2021 ANET Arista Networks, Inc. Ullal Jayshree President and CEO S 5000.0 518.0 2590000.0
11/16/2021 EXPD EXPEDITORS INTERNATIONAL OF WASHINGTON INC Clark Benjamin G. SVP - Chief Strategy Officer S 7602.0 130.685 993467.37
11/16/2021 ASTE ASTEC INDUSTRIES INC Litchfield Matthew T Sr Chief Information Officer S 1081.0 71.11 76869.91
11/16/2021 FTNT Fortinet, Inc. Jensen Keith CFO & Chief Accounting Officer S 100.0 332.9 33290.0
11/16/2021 LPX LOUISIANA-PACIFIC CORP Southern William Bradley Chief Executive Officer P 5350.0 67.24 359734.0
11/16/2021 CDNS CADENCE DESIGN SYSTEMS INC DEVGAN ANIRUDH President S 25000.0 184.0 4600000.0
11/16/2021 PTC PTC INC. Talvitie Kristian EVP, Chief Financial Officer S 3486.0 119.4883 416536.21379999997
11/16/2021 PTC PTC INC. HEPPELMANN JAMES E President and CEO S 905.0 119.3735 108033.0175
11/16/2021 PTC PTC INC. VON STAATS AARON C EVP, GC and Secretary S 1137.0 119.8538 136273.77060000002
11/16/2021 EGHT 8X8 INC /DE/ Cota Germaine Chief Accting Off./Treasurer S 122.0 22.624 2760.1279999999997
11/16/2021 EGHT 8X8 INC /DE/ Zinn Matthew SVP-CLO, Secretary S 211.0 22.624 4773.664
11/16/2021 EGHT 8X8 INC /DE/ Deklich Dejan Chief Products Officer S 444.0 22.624 10045.055999999999
11/15/2021 QRVO Qorvo, Inc. Klein James L Former VP & Pres. Infra. & Def S 1909.0 160.85 307062.64999999997
11/15/2021 ETSY ETSY INC Simeone Jill Chief Legal Officer S 5000.0 275.15 1375750.0
11/15/2021 AOS SMITH A O CORP Carver Samuel M. SVP - Global Operations S 5140.0 81.3281 418026.434
11/15/2021 USNA USANA HEALTH SCIENCES INC Mulham David Mulham Chief Field Development Office S 569.0 102.0 58038.0
11/15/2021 VRTX VERTEX PHARMACEUTICALS INC / MA ALTSHULER DAVID EVP, Global Research and CSO S 14.0 186.8 2615.2000000000003
11/15/2021 ADTN ADTRAN INC Harris Ray Chief Information Officer S 2270.0 21.2321 48196.867
11/15/2021 CRI CARTERS INC CASEY MICHAEL DENNIS Chairman and CEO S 17500.0 108.77 1903475.0
11/15/2021 VRTX VERTEX PHARMACEUTICALS INC / MA Arbuckle Stuart A EVP, COO S 2.0 186.99 373.98
11/15/2021 TTGT TechTarget Inc MARINO ROGER M None S 23776.0 107.64 2559248.64
11/15/2021 ZEN Zendesk, Inc. Svane Mikkel Chair and CEO S 18393.0 103.2769 1899572.0217
11/15/2021 BKNG Booking Holdings Inc. GOULDEN DAVID I Chief Financial Officer S 183.0 2455.0 449265.0
11/15/2021 EXPE Expedia Group, Inc. Athey Susan C None S 300.0 179.16 53748.0
11/15/2021 PTC PTC INC. VON STAATS AARON C EVP, GC and Secretary S 1495.0 119.9441 179316.4295
11/15/2021 BKNG Booking Holdings Inc. Fogel Glenn D CEO and President S 100.0 2401.25 240125.0
11/15/2021 CHRW C. H. ROBINSON WORLDWIDE, INC. Castagnetto Michael D. President of Robinson Fresh S 177.0 94.97 16809.69
11/15/2021 SCHW SCHWAB CHARLES CORP Schwab Charles R. Chairman S 24550.0 82.0477 2014271.0350000001
11/15/2021 TYL TYLER TECHNOLOGIES INC MARR JOHN S JR Executive Chairman S 17500.0 550.1961 9628431.75
11/15/2021 SSD Simpson Manufacturing Co., Inc. Magstadt Brian J Chief Financial Officer S 2000.0 120.0 240000.0
11/15/2021 PLUS EPLUS INC Callies John E None S 400.0 118.885 47554.0
11/15/2021 ETSY ETSY INC BURNS M MICHELE None S 1000.0 274.0 274000.0
11/15/2021 ETSY ETSY INC PATEL GOYAL KRUTI Chief Product Officer S 302.0 272.55 82310.1
11/15/2021 QLYS QUALYS, INC. Thakar Sumedh S CEO & President S 2500.0 136.1123 340280.75
11/15/2021 MORN Morningstar, Inc. Mansueto Joseph D Executive Chairman S 821.0 315.919 259369.49899999998
11/15/2021 HUBS HUBSPOT INC Bueker Kathryn Chief Financial Officer S 600.0 840.0 504000.0
11/15/2021 EXP EAGLE MATERIALS INC Haack Michael President and CEO S 7070.0 165.0079 1166605.8530000001
11/15/2021 AMKR AMKOR TECHNOLOGY, INC. Rutten Guillaume Marie Jean President and CEO S 25000.0 23.35 583750.0
11/15/2021 JBLU JETBLUE AIRWAYS CORP Hayes Robin CEO S 1000.0 15.3 15300.0
11/15/2021 CAL CALERES INC SULLIVAN DIANE M CEO & Chair. of Board S 1864.0 27.0206 50366.398400000005
11/15/2021 VRTX VERTEX PHARMACEUTICALS INC / MA Sachdev Amit EVP, Chief Patient Officer S 21.0 186.78 3922.38
11/15/2021 HUBS HUBSPOT INC Kelleher John P. General Counsel S 761.0 840.0 639240.0
11/15/2021 CSWI CSW INDUSTRIALS, INC. Armes Joseph B Chairman, President & CEO S 1149.0 139.96 160814.04
11/15/2021 ZEN Zendesk, Inc. Gennaro Norman President of Sales S 5000.0 103.14 515700.0
11/15/2021 NSP INSPERITY, INC. ALLISON JAMES D SVP of Gross Profit Operations S 4000.0 119.02 476080.0
11/15/2021 QRVO Qorvo, Inc. FEGO PAUL J VP, Global Operations S 5135.0 160.85 825964.75
11/15/2021 FFIV F5, INC. Pelzer Francis J. EVP, Chief Financial Officer S 2415.0 228.46 551730.9
11/15/2021 TXN TEXAS INSTRUMENTS INC BAHAI AHMAD Sr. Vice President S 4250.0 189.486 805315.5
11/15/2021 BOOT Boot Barn Holdings, Inc. MACDONALD ANNE None S 300.0 120.18 36054.0
11/15/2021 MLAB MESA LABORATORIES INC /CO/ Sullivan John James None S 5192.0 308.02 1599239.8399999999
11/15/2021 DECK DECKERS OUTDOOR CORP Yang Wendy W President, PLG S 14383.0 420.9427 6054418.8541
11/15/2021 EXP EAGLE MATERIALS INC Graass James H EVP & General Counsel S 3000.0 165.1 495300.0
11/15/2021 EXP EAGLE MATERIALS INC Devlin William R SVP, Controller S 5152.0 165.0637 850408.1824
11/15/2021 TRMB TRIMBLE INC. Dalton James Calvin None S 3778.0 87.47 330461.66
11/15/2021 CVX CHEVRON CORP Pate R. Hewitt VP and General Counsel S 39000.0 115.0395 4486540.5
11/12/2021 MPWR MONOLITHIC POWER SYSTEMS INC Moyer James C None S 2000.0 555.31 1110620.0
11/12/2021 ETSY ETSY INC MOSKOWITZ RAINA Chief Ops,Strategy&Ppl Officer S 6000.0 268.59 1611539.9999999998
11/12/2021 ILMN ILLUMINA, INC. Aravanis Alexander SVP, Chief Technology Officer S 361.0 386.35 139472.35
11/12/2021 AAPL Apple Inc. KONDO CHRIS Principal Accounting Officer S 9005.0 150.0 1350750.0
11/12/2021 MPWR MONOLITHIC POWER SYSTEMS INC Xiao Deming Pres. of MPS Asia Operations S 1625.0 553.418 899304.25
11/12/2021 MPWR MONOLITHIC POWER SYSTEMS INC Tseng Saria VP & General Counsel S 1625.0 553.418 899304.25
11/12/2021 TTGT TechTarget Inc Strakosch Greg Executive Chairman S 10000.0 107.0 1070000.0
11/12/2021 EXPO EXPONENT INC Kytomaa Harri Group Vice President S 500.0 124.8337 62416.85
11/12/2021 MAN ManpowerGroup Inc. PAYNE ULICE JR None S 1100.0 103.54 113894.0
11/12/2021 ATGE Adtalem Global Education Inc. Kiser Georgette D. None P 50.0 32.99 1649.5
11/12/2021 CMA COMERICA INC /NEW/ Ortiz Mauricio A SVP & Chief Accounting Officer S 567.0 88.483 50169.861000000004
11/12/2021 PYPL PayPal Holdings, Inc. SCHULMAN DANIEL H President and CEO S 1641.0 202.07 331596.87
11/12/2021 JBHT HUNT J B TRANSPORT SERVICES INC Kuhlow John EVP & CFO S 1000.0 201.1706 201170.6
11/12/2021 ECL ECOLAB INC. Simermeyer Elizabeth A EVP & PRES - HC & LIFE SCI S 7539.0 235.528 1775645.592
11/12/2021 CGNX COGNEX CORP Todgham Paul SVP, CFO S 3000.0 82.993 248978.99999999997
11/12/2021 TYL TYLER TECHNOLOGIES INC MILLER BRIAN K Executive VP and CFO S 2514.0 547.0372 1375251.5208
11/12/2021 SXI STANDEX INTERNATIONAL CORP/DE/ HANSEN THOMAS J None S 100.0 120.1 12010.0
11/12/2021 ROK ROCKWELL AUTOMATION, INC MILLER JOHN M VP and Chief IP Counsel S 600.0 334.39 200634.0
11/12/2021 AOS SMITH A O CORP WOLF IDELLE K None S 1157.0 81.24 93994.68
11/12/2021 AYI ACUITY BRANDS INC GOLDMAN BARRY R SVP & General Counsel S 962.0 221.61 213188.82
11/12/2021 PDFS PDF SOLUTIONS INC GUSTAFSON MICHAEL B None S 3000.0 32.9973 98991.90000000001
11/12/2021 NSIT INSIGHT ENTERPRISES INC LAMNECK KENNETH T Chief Executive Officer S 3000.0 106.0993 318297.9
11/12/2021 BOOT Boot Barn Holdings, Inc. Grijalva Laurie Marie Chief Merchandise Officer S 13498.0 119.3311 1610731.1878000002
11/12/2021 WSM WILLIAMS SONOMA INC ALBER LAURA PRESIDENT & CEO S 1100.0 206.28 226908.0
11/12/2021 MASI MASIMO CORP Young Micah W EVP & Chief Financial Officer S 3700.0 298.0 1102600.0
11/12/2021 MPWR MONOLITHIC POWER SYSTEMS INC Hsing Michael CEO S 6273.0 553.418 3471591.114
11/12/2021 MPWR MONOLITHIC POWER SYSTEMS INC BLEGEN THEODORE CFO S 1364.0 553.418 754862.152
11/12/2021 MPWR MONOLITHIC POWER SYSTEMS INC Sciammas Maurice Sr. V.P.of Sales and Marketing S 1625.0 553.418 899304.25
11/12/2021 COLM COLUMBIA SPORTSWEAR CO KLENZ WALTER None S 1192.0 105.97 126316.24
11/12/2021 PRI Primerica, Inc. Williams Glenn J. Chief Executive Officer S 4000.0 161.9362 647744.8
11/12/2021 SWKS SKYWORKS SOLUTIONS, INC. TERRY ROBERT JOHN SVP, Gen. Counsel & Secretary S 2998.0 162.27 486485.46
11/12/2021 EAT BRINKER INTERNATIONAL, INC Comings Douglas N. SVP & Co-COO, Chili's S 2000.0 43.06 86120.0
11/12/2021 ATRC AtriCure, Inc. Austin Tonya Chief Human Resources Officer S 2732.0 78.55 214598.6
11/12/2021 MASI MASIMO CORP KIANI JOE E CEO and Chairman of the Board S 8549.0 300.0316 2564970.1484000003
11/12/2021 MTB M&T BANK CORP Warman D Scott N Executive Vice President S 3964.02 159.8815 633773.4636299999
11/11/2021 AMPH Amphastar Pharmaceuticals, Inc. PETERS WILLIAM J CFO, EVP & Treasurer S 10000.0 21.33 213299.99999999997
11/11/2021 USNA USANA HEALTH SCIENCES INC Mulham David Mulham Chief Field Development Office S 1111.0 100.74 111922.14
11/11/2021 LNC LINCOLN NATIONAL CORP Kennedy John Christopher EVP, President LFD S 10922.0 73.52 802985.44
11/11/2021 ANET Arista Networks, Inc. Ullal Jayshree President and CEO S 4500.0 523.66 2356470.0
11/11/2021 NSP INSPERITY, INC. Herink Daniel D SVP Legal, Gen Counsel & Sec S 3197.0 121.01 386868.97000000003
11/11/2021 MLAB MESA LABORATORIES INC /CO/ Sakys John CFO S 1000.0 317.12 317120.0
11/11/2021 SNV SYNOVUS FINANCIAL CORP Stelling Kessel D Executive Chairman S 4608.0 50.0 230400.0
11/11/2021 MORN Morningstar, Inc. Kaplan Steven N None S 1000.0 312.87 312870.0
11/11/2021 ETSY ETSY INC Silverman Josh President & CEO S 13966.0 252.34 3524180.44
11/11/2021 KWR QUAKER CHEMICAL CORP PLATZER L WILBERT SVP, Global Ops, EHS & Prcmt S 673.0 269.27 181218.71
11/11/2021 CVCO CAVCO INDUSTRIES INC. Like Steven K. Senior Vice President S 2800.0 292.6 819280.0000000001
11/11/2021 MORN Morningstar, Inc. Mansueto Joseph D Executive Chairman S 1163.0 312.842 363835.246
11/11/2021 HBAN HUNTINGTON BANCSHARES INC /MD/ Syal Rajeev SEVP S 67826.0 16.0462 1088349.5611999999
11/11/2021 RJF RAYMOND JAMES FINANCIAL INC Bunn James E Pres-GlobEq&Inv Banking-RJA S 15166.0 100.7345 1527739.427
11/11/2021 TMP TOMPKINS FINANCIAL CORP Rahilly Ita M None P 207.02 84.5327 17499.959554
11/11/2021 SXI STANDEX INTERNATIONAL CORP/DE/ Valashinas Sean C VP/Chief Accounting Officer S 1.0 120.21 120.21
11/11/2021 WSFS WSFS FINANCIAL CORP Ward Patrick Joseph Executive Vice President S 560.0 55.56 31113.600000000002
11/11/2021 AX Axos Financial, Inc. Grinberg Paul None S 19961.0 59.8347 1194360.4467
11/11/2021 NSP INSPERITY, INC. SARVADI PAUL J Chairman of the Board & CEO S 28071.0 120.15 3372730.6500000004
11/11/2021 SXI STANDEX INTERNATIONAL CORP/DE/ CHORMAN THOMAS E None S 490.0 118.5 58065.0
11/11/2021 SXI STANDEX INTERNATIONAL CORP/DE/ Dunbar David A. President/CEO/Chairman S 3136.0 120.0 376320.0
11/11/2021 SMP STANDARD MOTOR PRODUCTS, INC. BURKS DALE EVP & Chief Commercial Officer S 2141.0 53.0 113473.0
11/11/2021 AMPH Amphastar Pharmaceuticals, Inc. Zhou Rong EVP, Production Center S 7813.0 21.67 169307.71000000002
11/11/2021 SSTK Shutterstock, Inc. Oringer Jonathan Executive Chairman S 3700.0 118.31 437747.0
11/11/2021 WSFS WSFS FINANCIAL CORP Clark Stephen P EVP S 6025.0 55.4755 334239.88749999995
11/10/2021 ALGN ALIGN TECHNOLOGY INC Thaler Warren S None S 5000.0 703.0588 3515294.0
11/10/2021 CNC CENTENE CORP ROBERTS JOHN R None S 20000.0 75.04 1500800.0000000002
11/10/2021 FDS FACTSET RESEARCH SYSTEMS INC Reeve Jonathan EVP, Head of CTS S 735.0 451.24 331661.4
11/10/2021 CACC CREDIT ACCEPTANCE CORP SMITH THOMAS W None S 2000.0 653.125 1306250.0
11/10/2021 CACC CREDIT ACCEPTANCE CORP SMITH ARTHUR L Chief Analytics Officer S 258.0 647.42 167034.36
11/10/2021 CAL CALERES INC SULLIVAN DIANE M CEO & Chair. of Board S 226.0 27.0377 6110.5202
11/10/2021 CAKE CHEESECAKE FACTORY INC Ames Edie A None P 1650.0 45.1187 74445.855
11/10/2021 ECL ECOLAB INC. REICH VICTORIA None S 2400.0 233.267 559840.8
11/10/2021 PG PROCTER & GAMBLE Co Homan Michael G. SVP - Chief Accounting Officer S 10000.0 146.8111 1468111.0
11/10/2021 PG PROCTER & GAMBLE Co Taylor David S Executive Chairman S 50000.0 146.0022 7300109.999999999
11/10/2021 SWKS SKYWORKS SOLUTIONS, INC. GRIFFIN LIAM Chairman, CEO and President S 2367.0 162.56 384779.52
11/10/2021 SPSC SPS COMMERCE INC Black Archie C. CEO S 27548.0 139.9664 3855794.3871999998
11/10/2021 YUMC Yum China Holdings, Inc. Yuen Aiken Chief People Officer S 1480.0 54.99 81385.2
11/10/2021 SXI STANDEX INTERNATIONAL CORP/DE/ Burns Paul C. Vice Pres. Corp Development S 3345.0 118.25 395546.25
11/10/2021 SXI STANDEX INTERNATIONAL CORP/DE/ Sarcevic Ademir Vice President/CFO/Treasurer S 555.0 118.05 65517.75
11/10/2021 BL BLACKLINE, INC. Partin Mark Chief Financial Officer S 3061.0 127.3615 389853.5515
11/10/2021 NSIT INSIGHT ENTERPRISES INC LAMNECK KENNETH T Chief Executive Officer S 3000.0 105.079 315237.0
11/10/2021 ANET Arista Networks, Inc. Duda Kenneth CTO and SVP Software Eng. S 200.0 519.345 103869.0
11/10/2021 ANET Arista Networks, Inc. Duda Kenneth CTO and SVP Software Eng. S 38.0 532.5163 20235.6194
11/10/2021 BR BROADRIDGE FINANCIAL SOLUTIONS, INC. Tae Michael S Corporate VP, CTO, ICS S 2065.0 178.525 368654.125
11/10/2021 SMP STANDARD MOTOR PRODUCTS, INC. Tesoro Thomas CHRO S 950.0 51.69 49105.5
11/10/2021 RF REGIONS FINANCIAL CORP Duggirala Amala SEVP S 25000.0 24.5002 612505.0
11/10/2021 ZION ZIONS BANCORPORATION, NATIONAL ASSOCIATION /UT/ SHIREY TERRY ALAN Executive Vice President & S 8867.0 65.708 582632.836
11/09/2021 TYL TYLER TECHNOLOGIES INC MILLER BRIAN K Executive VP and CFO S 2500.0 541.395 1353487.5
11/09/2021 MORN Morningstar, Inc. Mansueto Joseph D Executive Chairman S 3985.0 311.4878 1241278.883
11/09/2021 NTCT NETSCOUT SYSTEMS INC DOWNING JOHN EVP, World-Wide Sales S 3000.0 32.843 98529.00000000001
11/09/2021 QLYS QUALYS, INC. Thakar Sumedh S CEO & President S 2403.0 140.0523 336545.6769
11/09/2021 XYL Xylem Inc. Decker Patrick President & CEO S 54643.0 132.9066 7262415.3438
11/09/2021 FORM FORMFACTOR INC Shahar Shai CFO, SVP Global Finance S 3374.0 43.7837 147726.20380000002
11/09/2021 NTCT NETSCOUT SYSTEMS INC SZABADOS MICHAEL Chief Operating Officer S 6400.0 33.0586 211575.03999999998
11/09/2021 REGI Renewable Energy Group, Inc. Bowen Eric General Counsel and Secretary S 5000.0 57.36 286800.0
11/09/2021 TYL TYLER TECHNOLOGIES INC Puckett Jeffrey David Chief Operating Officer S 3000.0 540.0892 1620267.6
11/09/2021 ANET Arista Networks, Inc. Ullal Jayshree President and CEO S 4500.0 527.45 2373525.0
11/09/2021 TYL TYLER TECHNOLOGIES INC MOORE H LYNN JR President S 10000.0 539.24 5392400.0
11/09/2021 PYPL PayPal Holdings, Inc. Donahoe John J None P 9780.0 204.42 1999227.5999999999
11/09/2021 EXPE Expedia Group, Inc. Dzielak Robert J Chief Legal Officer & Sec'y S 70000.0 187.5 13125000.0
11/09/2021 SIGI SELECTIVE INSURANCE GROUP INC MURPHY GREGORY E None S 22759.0 79.6622 1813032.0097999999
11/09/2021 POWI POWER INTEGRATIONS INC Bailey Doug VP Marketing S 1000.0 102.39 102390.0
11/09/2021 ATGE Adtalem Global Education Inc. Beard, Stephen W. President and CEO P 1000.0 32.84 32840.0
11/09/2021 SSD Simpson Manufacturing Co., Inc. ANDRASICK JAMES S None S 800.0 123.19 98552.0
11/09/2021 WWW WOLVERINE WORLD WIDE INC /DE/ KRUEGER BLAKE W CEO S 709.0 38.01 26949.09
11/09/2021 SIVB SVB FINANCIAL GROUP Descheneaux Michael President, Silicon Valley Bank S 1000.0 736.09 736090.0
11/09/2021 ZEN Zendesk, Inc. Agrawal Archana None S 190.0 101.74 19330.6
11/09/2021 WWW WOLVERINE WORLD WIDE INC /DE/ Klimek Amy M. Sr. VP of Human Resources S 550.0 38.01 20905.5
11/09/2021 RS RELIANCE STEEL & ALUMINUM CO Smith William A II SVP, General Counsel, Corp Sec S 5598.0 164.93 923278.14
11/09/2021 ADTN ADTRAN INC Nair Balan None P 4773.0 20.9496 99992.4408
11/09/2021 ECL ECOLAB INC. Berger Larry L EVP & CHIEF TECHNICAL OFFICER S 5948.0 230.874 1373238.552
11/09/2021 AX Axos Financial, Inc. Micheletti Andrew J EVP, Finance S 25318.0 60.35 1527941.3
11/09/2021 TNC TENNANT CO Arvani Azita None S 1411.0 83.595 117952.545
11/09/2021 CAL CALERES INC SULLIVAN DIANE M CEO & Chair. of Board S 2626.0 27.0027 70909.0902
11/09/2021 EXPO EXPONENT INC Reiss Richard Group Vice President S 2076.0 119.88 248870.88
11/09/2021 CVX CHEVRON CORP Breber Pierre R VP & Chief Financial Officer S 17000.0 116.0169 1972287.3
11/09/2021 WMK WEIS MARKETS INC Gleeson Robert G. SVP, Merchandising & Marketing P 100.0 62.1675 6216.75
11/09/2021 TMP TOMPKINS FINANCIAL CORP BOYCE DAVID S EVP, Pres. & CEO Tompkins Ins. S 1500.0 84.0 126000.0
11/09/2021 FFIV F5 NETWORKS, INC. WHALEN CHAD MICHAEL EVP, Worldwide Sales S 1867.0 223.14 416602.37999999995
11/09/2021 SSTK Shutterstock, Inc. Oringer Jonathan Executive Chairman S 7097.0 120.85 857672.45
11/09/2021 BL BLACKLINE, INC. HIRSCH PETER Chief Technology Officer S 2019.0 131.0404 264570.5676
11/09/2021 GGG GRACO INC Etchart Eric None S 600.0 79.6 47760.0
11/09/2021 JBL JABIL INC BORGES STEVEN D EVP, CEO, Regulated Industries S 426.0 63.5387 27067.4862
11/09/2021 KWR QUAKER CHEMICAL CORP Laininger Dieter SVP, Managing Director - APAC S 2808.0 270.23 758805.8400000001
11/08/2021 CHRW C. H. ROBINSON WORLDWIDE, INC. OBRIEN CHRIS Chief Commercial Officer S 9302.0 94.32 877364.6399999999
11/08/2021 ETSY ETSY INC BURNS M MICHELE None S 2000.0 267.0 534000.0
11/08/2021 AOS SMITH A O CORP Heideman Robert J Senior VP, CTO S 9243.0 77.4917 716255.7831
11/08/2021 INDB INDEPENDENT BANK CORP SEKSAY EDWARD H General Counsel/Chief Risk Off S 4467.0 91.7581 409883.4327
11/08/2021 SFBS ServisFirst Bancshares, Inc. FOSHEE WILLIAM M EVP, CFO S 32000.0 85.1 2723200.0
11/08/2021 EXP EAGLE MATERIALS INC Haack Michael President and CEO S 5000.0 160.0 800000.0
11/08/2021 SSD Simpson Manufacturing Co., Inc. Colonias Karen Winifred President & CEO S 15000.0 120.91 1813650.0
11/08/2021 MPWR MONOLITHIC POWER SYSTEMS INC Xiao Deming Pres. of MPS Asia Operations S 2022.0 548.27 1108601.94
11/08/2021 COHU COHU INC BILODEAU STEVEN J None S 6944.0 36.65 254497.59999999998
11/08/2021 PSMT PRICESMART INC Price Philanthropies Foundation None S 3601.0 74.906 269736.506
11/08/2021 PSMT PRICESMART INC PRICE ROBERT E None S 1800.0 74.906 134830.80000000002
11/08/2021 COHU COHU INC BENDUSH WILLIAM None S 5000.0 36.34 181700.00000000003
11/08/2021 MPWR MONOLITHIC POWER SYSTEMS INC BLEGEN THEODORE CFO S 1460.0 548.27 800474.2
11/08/2021 AMP AMERIPRISE FINANCIAL INC THISSEN KAREN WILSON Executive VP and GC S 1500.0 308.0263 462039.45
11/08/2021 FL FOOT LOCKER, INC. MCKENNA MATTHEW M None S 10214.0 52.97 541035.58
11/08/2021 MPWR MONOLITHIC POWER SYSTEMS INC Hsing Michael CEO S 7813.0 548.27 4283633.51
11/08/2021 LNC LINCOLN NATIONAL CORP Freitag Randal J EVP & CFO S 61430.0 73.05 4487461.5
11/08/2021 ZEN Zendesk, Inc. Abildgaard Soren EVP of Engineering S 2189.0 101.04 221176.56000000003
11/08/2021 SWKS SKYWORKS SOLUTIONS, INC. TERRY ROBERT JOHN SVP, Gen. Counsel & Secretary S 3100.0 163.52 506912.00000000006
11/08/2021 MPWR MONOLITHIC POWER SYSTEMS INC Sciammas Maurice Sr. V.P.of Sales and Marketing S 2022.0 548.27 1108601.94
11/08/2021 SCHW SCHWAB CHARLES CORP Schwab Charles R. Chairman S 22250.0 81.618 1816000.5
11/08/2021 EXP EAGLE MATERIALS INC Wentzel Steven L President (American Gypsum) S 2583.0 160.0031 413288.0073
11/08/2021 SCHW SCHWAB CHARLES CORP Schwab Charles R. Chairman S 1973.0 81.75 161292.75
11/08/2021 EXP EAGLE MATERIALS INC Graass James H EVP & General Counsel S 5000.0 158.0494 790247.0
11/08/2021 MLAB MESA LABORATORIES INC /CO/ KELLY DAVID M None S 18.0 324.07 5833.26
11/08/2021 ALGN ALIGN TECHNOLOGY INC Morici John Chief Financial Officer S 3000.0 699.08 2097240.0
11/08/2021 MLAB MESA LABORATORIES INC /CO/ DINOIA GREGORY SVP Commercial S 280.0 323.72 90641.6
11/08/2021 LNN LINDSAY CORP NAHL MICHAEL None S 800.0 162.82 130256.0
11/08/2021 CRI CARTERS INC CASEY MICHAEL DENNIS Chairman and CEO S 17500.0 105.49 1846075.0
11/08/2021 MED MEDIFAST INC BROWN JEFFREY J None P 199.898 218.49 43675.71402
11/08/2021 ATGE Adtalem Global Education Inc. MALAFRONTE MICHAEL W None P 21500.0 32.99 709285.0
11/08/2021 ZION ZIONS BANCORPORATION, NATIONAL ASSOCIATION /UT/ ANDERSON A SCOTT Exec VP and S 1520.0 65.651 99789.51999999999
11/08/2021 ILMN ILLUMINA, INC. Febbo Phillip G. SVP Chief Medical Officer S 1000.0 406.83 406830.0
11/08/2021 UMBF UMB FINANCIAL CORP Odgers David Carl Chief Accounting Officer S 100.0 103.79 10379.0
11/05/2021 EXPO EXPONENT INC Reitman Maureen T. F. Group Vice President S 611.0 120.0 73320.0
11/05/2021 EXPD EXPEDITORS INTERNATIONAL OF WASHINGTON INC Wright Robert R None S 3420.0 127.0601 434545.542
11/05/2021 KDP Keurig Dr Pepper Inc. Singer Robert S None S 9500.0 36.3208 345047.6
11/05/2021 SSTK Shutterstock, Inc. Evans Thomas R None S 2570.0 121.44 312100.8
11/05/2021 SSTK Shutterstock, Inc. Oringer Jonathan Executive Chairman S 6425.0 121.52 780766.0
11/05/2021 CROX Crocs, Inc. Rees Andrew Chief Executive Officer S 10000.0 180.1913 1801913.0000000002
11/05/2021 AVY Avery Dennison Corp Alford Bradley A None S 6318.0 225.5849 1425245.3982
11/05/2021 BA BOEING CO Dandridge Edward Lee SVP, Communications S 990.0 221.87 219651.30000000002
11/05/2021 PG PROCTER & GAMBLE Co Francisco Ma. Fatima CEO - Baby, Fem & Family Care S 3400.0 146.0 496400.0
11/05/2021 HNI HNI CORP Bradford Steven M Sr. VP, Gen. Counsel & Sec. S 10580.0 40.55 429018.99999999994
11/05/2021 JBHT HUNT J B TRANSPORT SERVICES INC Hicks Bradley W. EVP & Pres Highway Services S 1000.0 197.0971 197097.1
11/05/2021 SCHW SCHWAB CHARLES CORP Schwab Charles R. Chairman S 59177.0 81.7997 4840660.8469
11/05/2021 JBL JABIL INC BORGES STEVEN D EVP, CEO, Regulated Industries S 9419.0 65.0 612235.0
11/05/2021 TYL TYLER TECHNOLOGIES INC MILLER BRIAN K Executive VP and CFO S 2500.0 541.395 1353487.5
11/05/2021 MORN Morningstar, Inc. Mansueto Joseph D Executive Chairman S 938.0 313.6067 294163.0846
11/05/2021 HPQ HP INC Schell Christoph Chief Commercial Officer S 41362.0 32.01 1323997.6199999999
11/05/2021 APOG APOGEE ENTERPRISES, INC. JOHNSON GARY ROBERT Treasurer & Sr Vice President S 477.0 47.0 22419.0
11/05/2021 SCL STEPAN CO Rojo Luis VP & Chief Financial Officer S 800.0 125.015 100012.0
11/05/2021 HBAN HUNTINGTON BANCSHARES INC /MD/ Wasserman Zachary Jacob CFO and Senior Exec. VP S 20824.0 16.05 334225.2
11/05/2021 TTGT TechTarget Inc Cotoia Michael Chief Executive Officer S 33784.0 100.6 3398670.4
11/05/2021 BL BLACKLINE, INC. Huffman Marc Chief Executive Officer S 11742.0 130.0 1526460.0
11/05/2021 BL BLACKLINE, INC. HIRSCH PETER Chief Technology Officer S 3142.0 130.8183 411031.09859999997
11/05/2021 XYL Xylem Inc. Pine Matthew Francis Senior Vice President S 2000.0 130.49 260980.00000000003
11/05/2021 FORM FORMFACTOR INC SLESSOR MIKE CEO S 25000.0 44.6028 1115070.0
11/05/2021 ANET Arista Networks, Inc. Ullal Jayshree President and CEO S 4500.0 521.0 2344500.0
11/05/2021 WWW WOLVERINE WORLD WIDE INC /DE/ KRUEGER BLAKE W CEO S 213.0 38.0 8094.0
11/05/2021 WWW WOLVERINE WORLD WIDE INC /DE/ Klimek Amy M. Sr. VP of Human Resources S 165.0 38.0 6270.0
11/05/2021 BOOT Boot Barn Holdings, Inc. Love Michael A Senior Vice President Stores S 18936.0 118.3686 2241427.8096
11/05/2021 CNMD CONMED Corp TRYNISKI MARK E None S 4792.0 156.508 749986.336
11/05/2021 FHB FIRST HAWAIIAN, INC. Mallela Ravi Exec VP & CFO S 2193.0 28.7335 63012.5655
11/05/2021 FFIV F5 NETWORKS, INC. Locoh-Donou Francois President, CEO & Director S 162.0 225.0 36450.0
11/05/2021 USNA USANA HEALTH SCIENCES INC Neidig Brent Chief Officer & MD of China S 175.0 102.88 18004.0
11/05/2021 CACC CREDIT ACCEPTANCE CORP TRYFOROS THOMAS N None S 800.0 700.1 560080.0
11/05/2021 CACC CREDIT ACCEPTANCE CORP ULATOWSKI DANIEL A. Chief Sales Officer S 1000.0 701.91 701910.0
11/05/2021 USNA USANA HEALTH SCIENCES INC IIEKKING G DOUG CFO S 219.0 103.477 22661.463
11/05/2021 CAL CALERES INC SULLIVAN DIANE M CEO & Chair. of Board S 19200.0 26.6686 512037.12000000005
11/05/2021 SNBR Sleep Number Corp Brown Kevin Kennedy EVP and CMO S 7935.0 89.7904 712486.824
11/05/2021 FAST FASTENAL CO Soderberg John Lewis Senior Executive VP S 6428.0 59.3556 381537.7968
11/05/2021 SNV SYNOVUS FINANCIAL CORP Stelling Kessel D Executive Chairman S 11329.0 50.0 566450.0
11/05/2021 ETSY ETSY INC MOSKOWITZ RAINA Chief Ops,Strategy&Ppl Officer S 3300.0 260.12 858396.0
11/05/2021 NSIT INSIGHT ENTERPRISES INC LAMNECK KENNETH T Chief Executive Officer S 3000.0 103.9424 311827.2
11/05/2021 ETSY ETSY INC Simeone Jill Chief Legal Officer S 6672.0 257.58 1718573.76
11/05/2021 ETSY ETSY INC Fisher Michael T Chief Technology Officer S 2415.0 257.45 621741.75
11/05/2021 SXI STANDEX INTERNATIONAL CORP/DE/ Dunbar David A. President/CEO/Chairman S 114.0 120.0 13680.0
11/05/2021 CVX CHEVRON CORP BONNER EIMEAR P Vice President S 5800.0 114.5 664100.0
11/05/2021 EXP EAGLE MATERIALS INC Devlin William R SVP, Controller S 7216.0 155.25 1120284.0
11/04/2021 ROK ROCKWELL AUTOMATION, INC Riesterer Terry L. Vice President and Controller S 1900.0 342.6776 651087.44
11/04/2021 SNBR Sleep Number Corp Krusmark Christopher D SVP & Chief H.R. Officer S 1705.0 91.0 155155.0
11/04/2021 CVX CHEVRON CORP Wirth Michael K Chairman and CEO S 52500.0 113.7932 5974143.0
11/04/2021 CNMD CONMED Corp Pelletier Johonna Marie Treasurer and VP, Tax S 1247.0 154.138 192210.086
11/04/2021 FFIV F5 NETWORKS, INC. Locoh-Donou Francois President, CEO & Director S 1042.0 221.7 231011.4
11/04/2021 CNMD CONMED Corp Peters Stanley W III VP GM Advanced Surgery S 14000.0 154.061 2156854.0
11/04/2021 COP CONOCOPHILLIPS Olds Nicholas G Executive Vice President S 9200.0 74.64 686688.0
11/04/2021 ANET Arista Networks, Inc. McCool John F Chief Platform Officer S 4041.0 496.03 2004457.23
11/04/2021 TCBI TEXAS CAPITAL BANCSHARES INC/TX STALLINGS ROBERT W None P 16446.0 61.62 1013402.5199999999
11/04/2021 CROX Crocs, Inc. Bickley Ian None S 3000.0 177.127 531381.0
11/04/2021 USNA USANA HEALTH SCIENCES INC Mulham David Mulham Chief Field Development Office S 1398.0 101.77 142274.46
11/04/2021 TCBI TEXAS CAPITAL BANCSHARES INC/TX Hyle Charles S None P 1500.0 61.92 92880.0
11/04/2021 MKSI MKS INSTRUMENTS INC COLELLA GERARD G None S 3000.0 155.1625 465487.5
11/04/2021 ECL ECOLAB INC. Simermeyer Elizabeth A EVP & PRES - HC & LIFE SCI S 4378.0 228.189 999011.4419999999
11/04/2021 BLKB BLACKBAUD INC Gregoire Kevin P. President, U.S. Markets S 3268.0 80.0 261440.0
11/04/2021 BLKB BLACKBAUD INC McDearis Kevin EVP, Chief Products Officer S 4457.0 80.0 356560.0
11/04/2021 BLKB BLACKBAUD INC BOOR ANTHONY W CFO & Exec VP of Fin. & Admin. S 4000.0 80.0 320000.0
11/04/2021 CDNS CADENCE DESIGN SYSTEMS INC DEVGAN ANIRUDH President S 25000.0 179.004 4475100.0
11/04/2021 BLKB BLACKBAUD INC BOOR ANTHONY W CFO & Exec VP of Fin. & Admin. S 4000.0 80.0 320000.0
11/04/2021 BLKB BLACKBAUD INC MOONEY KEVIN W EVP, Strategy and Business Dev S 5583.0 80.0 446640.0
11/04/2021 BLKB BLACKBAUD INC Gianoni Michael P President and CEO S 4980.0 82.0 408360.0
11/04/2021 NSP INSPERITY, INC. SHARP DOUGLAS S SVP Finance, CFO & Treasurer S 2159.0 123.18 265945.62
11/04/2021 MSCI MSCI Inc. Pettit CD Baer President & COO S 40.0 646.5 25860.0
11/04/2021 ATRC AtriCure, Inc. Collar Mark A None S 4000.0 80.91 323640.0
11/04/2021 HRB H&R BLOCK INC Gerard Robert A None P 5000.0 25.1391 125695.5
11/04/2021 TXN TEXAS INSTRUMENTS INC Gary Mark Sr. Vice President S 4991.0 190.0 948290.0
11/04/2021 TXRH Texas Roadhouse, Inc. MOORE GREGORY N None S 3000.0 90.31 270930.0
11/04/2021 JBL JABIL INC Loparco Michael J EVP, CEO, EMS S 3172.0 64.0 203008.0
11/04/2021 QLYS QUALYS, INC. Thakar Sumedh S CEO & President S 4720.0 130.7981 617367.032
11/04/2021 QLYS QUALYS, INC. Philippe Courtot Family Trust None S 37400.0 130.6886 4887753.640000001
11/04/2021 JBL JABIL INC Dastoor Michael EVP, CFO S 10565.0 64.45 680914.25
11/04/2021 SAIA SAIA INC EISNOR DI-ANN None S 400.0 351.9075 140763.0
11/04/2021 ECL ECOLAB INC. McCormick Michael C. EVP, GC & SECRETARY S 2890.0 228.761 661119.29
11/04/2021 ATRC AtriCure, Inc. Wirick Angela L Chief Financial Officer S 2604.0 85.0 221340.0
11/04/2021 USNA USANA HEALTH SCIENCES INC Guest Kevin C.E.O. S 1057.0 102.347 108180.779
11/04/2021 TMP TOMPKINS FINANCIAL CORP KLEIN GERALD J JR EVP Pres&CEO Mahopac Bank S 998.0 82.09 81925.82
11/04/2021 CACC CREDIT ACCEPTANCE CORP ULATOWSKI DANIEL A. Chief Sales Officer S 1000.0 691.0 691000.0
11/03/2021 CACC CREDIT ACCEPTANCE CORP Booth Kenneth Chief Executive Officer S 3500.0 668.0 2338000.0
11/03/2021 TER TERADYNE, INC Mehta Sanjay VP and Chief Financial Officer S 1738.0 140.0 243320.0
11/03/2021 USNA USANA HEALTH SCIENCES INC Brown Jim President S 559.0 101.5726 56779.083399999996
11/03/2021 SPSC SPS COMMERCE INC SORAN PHILIP None S 3004.0 145.44 436901.76
11/03/2021 MEDP Medpace Holdings, Inc. King Tom C None S 176.0 226.63 39886.88
11/03/2021 UMBF UMB FINANCIAL CORP KEMPER J MARINER Chairman and CEO S 145.0 100.46 14566.699999999999
11/03/2021 USNA USANA HEALTH SCIENCES INC Jones Paul A. Chief Leadership Dev Officer S 2136.0 101.2488 216267.4368
11/03/2021 PG PROCTER & GAMBLE Co Francisco Ma. Fatima CEO - Baby, Fem & Family Care S 3400.0 145.0 493000.0
11/03/2021 UMBF UMB FINANCIAL CORP KEMPER J MARINER Chairman and CEO S 8.0 102.46 819.68
11/03/2021 CACC CREDIT ACCEPTANCE CORP BUSK DOUGLAS W Chief Treasury Officer S 1253.0 661.14 828408.4199999999
11/03/2021 TER TERADYNE, INC GUERTIN TIMOTHY E None S 4500.0 140.0 630000.0
11/03/2021 JBHT HUNT J B TRANSPORT SERVICES INC McGee Eric EVP Highway Services S 250.0 194.41 48602.5
11/03/2021 CACC CREDIT ACCEPTANCE CORP LUM JONATHAN Chief Operating Officer S 300.0 665.85 199755.0
11/03/2021 TXRH Texas Roadhouse, Inc. Colson Christopher C. General Counsel S 259.0 90.12 23341.08
11/03/2021 LMAT LEMAITRE VASCULAR INC Roberts David B President and Director S 19712.0 52.2391 1029737.1392
11/03/2021 ICUI ICU MEDICAL INC/DE Jain Vivek Chairman and CEO S 12000.0 240.0 2880000.0
11/03/2021 CAL CALERES INC SULLIVAN DIANE M CEO & Chair. of Board S 19000.0 26.0577 495096.3
11/03/2021 ZION ZIONS BANCORPORATION, NATIONAL ASSOCIATION /UT/ Young Mark Richard Exec VP S 1262.0 65.0 82030.0
11/03/2021 NTRS NORTHERN TRUST CORP St Clair Joyce Executive Vice President S 9395.0 125.0 1174375.0
11/03/2021 USNA USANA HEALTH SCIENCES INC Mulham David Mulham Chief Field Development Office S 1277.0 99.6347 127233.5119
11/03/2021 FITB FIFTH THIRD BANCORP Hammond Howard EVP S 4000.0 43.79 175160.0
11/03/2021 TNET TRINET GROUP, INC. BINGHAM H RAYMOND None S 120.0 101.1975 12143.7
11/03/2021 SMP STANDARD MOTOR PRODUCTS, INC. Tesoro Thomas CHRO S 1700.0 48.8 82960.0
11/03/2021 SMP STANDARD MOTOR PRODUCTS, INC. Nicholas Ray CIO & VP IT S 1176.0 50.0 58800.0
11/03/2021 ENPH Enphase Energy, Inc. Yang Mandy Chief Accounting Officer S 1400.0 231.849 324588.6
11/03/2021 ANET Arista Networks, Inc. Ullal Jayshree President and CEO S 4500.0 491.03 2209635.0
11/03/2021 MASI MASIMO CORP KIANI JOE E CEO and Chairman of the Board S 200.0 290.1737 58034.74
11/03/2021 SSTK Shutterstock, Inc. Oringer Jonathan Executive Chairman S 700.0 117.69 82383.0
11/03/2021 HBAN HUNTINGTON BANCSHARES INC /MD/ Jones Michael Scott SEVP of Significant Subsidiary S 50000.0 16.1372 806860.0
11/03/2021 TYL TYLER TECHNOLOGIES INC MARR JOHN S JR Executive Chairman S 10923.0 540.4019 5902809.9536999995
11/03/2021 SIGI SELECTIVE INSURANCE GROUP INC Lanza Michael H EVP and General Counsel S 200.0 80.7 16140.0
11/03/2021 FFIV F5 NETWORKS, INC. Rogers Scot Frazier EVP and General Counsel S 1200.0 218.1099 261731.88
11/03/2021 SIGI SELECTIVE INSURANCE GROUP INC Senia Vincent M EVP, Chief Actuary S 218.0 80.7946 17613.2228
11/03/2021 SCHW SCHWAB CHARLES CORP Schwab Charles R. Chairman S 61150.0 82.6866 5056285.59
11/03/2021 XOM EXXON MOBIL CORP Angelakis Michael J None P 5000.0 64.0 320000.0
11/03/2021 GNTX GENTEX CORP Wallace James H None S 7000.0 36.2347 253642.89999999997
11/03/2021 CNMD CONMED Corp Beyer Pat President Int'l & Global Ortho S 400.0 147.505 59002.0
11/03/2021 SAIA SAIA INC RAMU RAYMOND R Exec. VP & Chief Customer Off. S 505.0 342.175 172798.375
11/03/2021 NSIT INSIGHT ENTERPRISES INC LAMNECK KENNETH T Chief Executive Officer S 1000.0 97.0282 97028.2
11/03/2021 CRI CARTERS INC Lynch Brian President, Carter's, Inc. S 15900.0 101.89 1620051.0
11/03/2021 FTNT Fortinet, Inc. Whittle John VP Corp Dev&Strat Alliance,GC S 1153.0 330.06 380559.18
11/03/2021 PANW Palo Alto Networks Inc MCLAUGHLIN MARK D None S 333.0 503.258 167584.914
11/03/2021 MORN Morningstar, Inc. Mansueto Joseph D Executive Chairman S 5672.0 310.983 1763895.5760000001
11/03/2021 HBAN HUNTINGTON BANCSHARES INC /MD/ Phelan Kenneth J None P 20000.0 15.711 314220.0
11/03/2021 LBAI LAKELAND BANCORP INC Hanson James E. II None P 1025.0 18.96 19434.0
11/03/2021 HBAN HUNTINGTON BANCSHARES INC /MD/ Wasserman Zachary Jacob CFO and Senior Exec. VP S 8597.0 16.105 138454.685
11/02/2021 ROK ROCKWELL AUTOMATION, INC Nicolas Ernest SVP,Chief Supply Chain Officer S 414.0 341.5724 141410.9736
11/02/2021 MEDP Medpace Holdings, Inc. Brady Kevin M. CFO & Treasurer S 1250.0 226.5 283125.0
11/02/2021 UMPQ UMPQUA HOLDINGS CORP Nixon Torran B Umpqua Bank President S 5000.0 21.01 105050.00000000001
11/02/2021 UMBF UMB FINANCIAL CORP KEMPER J MARINER Chairman and CEO S 100.0 100.67 10067.0
11/02/2021 UMBF UMB FINANCIAL CORP KEMPER J MARINER Chairman and CEO S 383.0 100.08 38330.64
11/02/2021 UMBF UMB FINANCIAL CORP KEMPER J MARINER Chairman and CEO S 325.0 100.43 32639.750000000004
11/02/2021 QLYS QUALYS, INC. Philippe Courtot Family Trust None S 8918.0 125.2267 1116771.7105999999
11/02/2021 QLYS QUALYS, INC. Thakar Sumedh S CEO & President S 1600.0 125.8196 201311.36
11/02/2021 TYL TYLER TECHNOLOGIES INC MILLER BRIAN K Executive VP and CFO S 5000.0 540.1256 2700628.0
11/02/2021 HPQ HP INC Anderson Harvey Chief Legal Officer & Sec S 7811.0 31.26 244171.86000000002
11/02/2021 AOS SMITH A O CORP WOLF IDELLE K None S 1500.0 78.1296 117194.4
11/02/2021 AOS SMITH A O CORP Rajendra Ajita G None S 124010.0 76.8669 9532264.269
11/02/2021 FWRD FORWARD AIR CORP Hance Michael L CLO and Secretary S 3379.0 104.68 353713.72000000003
11/02/2021 FTNT Fortinet, Inc. Xie Michael VP, Engineering & CTO S 337.0 325.9205 109835.20850000001
11/02/2021 LPSN LIVEPERSON INC Collins John DeNeen Chief Financial Officer S 610.0 51.607 31480.27
11/02/2021 TRUE TrueCar, Inc. Buce Robert None S 3500.0 4.5706 15997.099999999999
11/02/2021 CACC CREDIT ACCEPTANCE CORP FOSS DONALD A None S 2000.0 670.9403 1341880.5999999999
11/02/2021 FFIV F5 NETWORKS, INC. Yamamoto Mika EVP, Chief Marketing Officer S 300.0 215.66 64698.0
11/02/2021 FFIV F5 NETWORKS, INC. WHALEN CHAD MICHAEL EVP, Worldwide Sales S 629.0 217.2703 136663.0187
11/02/2021 FFIV F5 NETWORKS, INC. Locoh-Donou Francois President, CEO & Director S 300.0 215.66 64698.0
11/02/2021 FFIV F5 NETWORKS, INC. FOUNTAIN THOMAS DEAN EVP Global Services & Strategy S 300.0 215.66 64698.0
11/02/2021 CBSH COMMERCE BANCSHARES INC /MO/ Handy John K Executive Vice President S 2125.0 72.8367 154777.9875
11/02/2021 EXR Extra Space Storage Inc. Herrington Matthew T EVP & COO S 400.0 202.535 81014.0
11/02/2021 DORM Dorman Products, Inc. KEALEY MICHAEL EVP, Commercial S 4148.0 106.1034 440116.9032
11/02/2021 PRGS PROGRESS SOFTWARE CORP /MA QUINN GARY Executive Vice President S 24934.0 52.1351 1299936.5834000001
11/02/2021 DOV DOVER Corp Kosinski Anthony K Vice President, Tax S 1645.0 170.825 281007.125
11/02/2021 EXP EAGLE MATERIALS INC Haack Michael President and CEO S 5000.0 155.0 775000.0
11/02/2021 EXP EAGLE MATERIALS INC Kesler Dale Craig EVP and CFO S 12828.0 156.25 2004375.0
11/02/2021 WSFS WSFS FINANCIAL CORP WRIGHT RICHARD EVP S 1733.0 53.6619 92996.0727
11/02/2021 ILMN ILLUMINA, INC. Aravanis Alexander SVP, Chief Technology Officer S 200.0 409.28 81856.0
11/02/2021 CNMD CONMED Corp KENNEDY JOHN JED Group Executive Vice President S 862.0 146.668 126427.816
11/02/2021 COHU COHU INC CAGGIA ANDREW M None S 4988.0 35.0 174580.0
11/02/2021 COHU COHU INC BOHRSON CHRISTOPHER Sr. VP Global Customer Group S 600.0 35.0 21000.0
11/02/2021 CPF CENTRAL PACIFIC FINANCIAL CORP KOSASA PAUL None S 53.0 27.9369 1480.6557
11/02/2021 SAIA SAIA INC HOLZGREFE FREDERICK J III President & CEO S 1181.0 336.5034 397410.5154
11/02/2021 EFSC ENTERPRISE FINANCIAL SERVICES CORP Eulich John S None P 7500.0 48.59 364425.0
11/02/2021 CRUS CIRRUS LOGIC, INC. Baumgartner Jeffrey W VP, R&D S 25290.0 83.2382 2105094.078
11/02/2021 INTC INTEL CORP Bryant Gregory M EVP, GM, CCG S 2841.0 49.63 140998.83000000002
11/02/2021 INTC INTEL CORP Rodgers Steven Ralph EVP General Counsel S 2972.0 49.63 147500.36000000002
11/01/2021 TNC TENNANT CO Mulligan Donal L None S 2531.0 80.0 202480.0
11/01/2021 FFIV F5 NETWORKS, INC. WHITE ANA MARIA EVP and Chief HR Officer S 169.0 210.56 35584.64
11/01/2021 HBAN HUNTINGTON BANCSHARES INC /MD/ Heller Paul G Sr. EVP & Chief Technology Off S 181688.0 15.9172 2891964.2336
11/01/2021 CHCO CITY HOLDING CO LEGGE JEFFREY DALE EVP, CAO & CIO S 500.0 81.445 40722.5
11/01/2021 SRDX SURMODICS INC Maharaj Gary R President & CEO S 5800.0 54.6302 316855.16000000003
11/01/2021 SSD Simpson Manufacturing Co., Inc. Dankel Roger President, Simpson Strong-Tie S 1500.0 106.32 159480.0
11/01/2021 EXPE Expedia Group, Inc. KHOSROWSHAHI DARA None S 1200.0 165.2833 198339.96
11/01/2021 SSTK Shutterstock, Inc. Oringer Jonathan Executive Chairman S 8518.0 120.33 1024970.94
11/01/2021 ECL ECOLAB INC. Duijser Machiel EVP & CSCO S 1452.0 222.746 323427.19200000004
11/01/2021 DORM Dorman Products, Inc. DARBY JEFFERY SVP, Sales and Marketing S 2500.0 105.7266 264316.5
11/01/2021 CVX CHEVRON CORP Geagea Joseph C Executive Vice President S 37000.0 114.8158 4248184.6
11/01/2021 CVX CHEVRON CORP Breber Pierre R VP & Chief Financial Officer S 20000.0 114.8052 2296104.0
11/01/2021 ZEN Zendesk, Inc. McDermott Adrian Chief Technology Officer S 9360.0 103.66 970257.6
11/01/2021 CROX Crocs, Inc. Bickley Ian None S 3240.0 167.3 542052.0
11/01/2021 USNA USANA HEALTH SCIENCES INC FULLER GILBERT A None S 312.0 98.3977 30700.0824
11/01/2021 DECK DECKERS OUTDOOR CORP Lafitte David E. COO S 500.0 395.48 197740.0
11/01/2021 DECK DECKERS OUTDOOR CORP Powers David President & CEO S 2225.0 395.48 879943.0
11/01/2021 NSP INSPERITY, INC. RAWSON RICHARD G None S 3400.0 129.32 439688.0
11/01/2021 MCRI MONARCH CASINO & RESORT INC Farahi David-Jacques None S 12000.0 72.69 872280.0
11/01/2021 MNRO MONRO, INC. Auerbach John L None S 2750.0 62.4656 171780.4
11/01/2021 UMBF UMB FINANCIAL CORP KEMPER J MARINER Chairman and CEO S 100.0 101.205 10120.5
11/01/2021 UMBF UMB FINANCIAL CORP KEMPER J MARINER Chairman and CEO S 100.0 101.64 10164.0
11/01/2021 UMBF UMB FINANCIAL CORP KEMPER J MARINER Chairman and CEO S 400.0 100.78 40312.0
11/01/2021 UMBF UMB FINANCIAL CORP KEMPER J MARINER Chairman and CEO S 200.0 100.02 20004.0
11/01/2021 ETSY ETSY INC Buckley Merilee Chief Accounting Officer S 227.0 242.37 55017.99
11/01/2021 UMBF UMB FINANCIAL CORP Peterman Tamara None P 146.4456 100.72 14750.000832000002
11/01/2021 UMBF UMB FINANCIAL CORP GRAVES GREG M None P 230.838 100.72 23250.00336
11/01/2021 UMBF UMB FINANCIAL CORP KEMPER J MARINER Chairman and CEO S 380.0 101.44 38547.2
11/01/2021 MORN Morningstar, Inc. Mansueto Joseph D Executive Chairman S 2780.0 315.8219 877984.8820000001
11/01/2021 ALLY Ally Financial Inc. Schugel Jason E. Chief Risk Officer S 2500.0 48.1 120250.0
11/01/2021 ALLY Ally Financial Inc. Morais Diane E. President, Ally Bank S 4125.0 48.1 198412.5
11/01/2021 ALLY Ally Financial Inc. Timmerman Douglas R. President, Auto Finance S 2917.0 48.1 140307.7
11/01/2021 ATEN A10 Networks, Inc. COCHRAN ROBERT D EVP Legal & Corp Collaboration S 40000.0 17.96 718400.0
11/01/2021 ATEN A10 Networks, Inc. BRUENING MATTHEW P EVP, Worldwide Sales & Mktg S 14162.0 17.96 254349.52000000002
11/01/2021 GNTX GENTEX CORP GOODE GARY F None S 6200.0 35.6792 221211.04
11/01/2021 SCHW SCHWAB CHARLES CORP Schwab Charles R. Chairman S 61350.0 81.6659 5010202.965
11/01/2021 JBLU JETBLUE AIRWAYS CORP Laurence Scott M Head of Revenue & Planning S 171.0 14.02 2397.42
11/01/2021 JBLU JETBLUE AIRWAYS CORP Hayes Robin CEO S 1000.0 14.02 14020.0
11/01/2021 APOG APOGEE ENTERPRISES, INC. JOHNSON GARY ROBERT Treasurer & Sr Vice President S 1756.0 44.0031 77269.44360000001
11/01/2021 HQY HEALTHEQUITY, INC. Otten William Robert None S 1850.0 66.42 122877.0
11/01/2021 AFL AFLAC INC MOSKOWITZ JOSEPH L None S 100.0 53.96 5396.0
11/01/2021 SNV SYNOVUS FINANCIAL CORP HOLLADAY MARK G EVP & Chief Risk Officer S 1500.0 47.13 70695.0
11/01/2021 AOS SMITH A O CORP Rajendra Ajita G None S 55730.0 74.8631 4172120.563
11/01/2021 AOS SMITH A O CORP WOLF IDELLE K None S 1000.0 74.7816 74781.59999999999
11/01/2021 AOS SMITH A O CORP BROWN RONALD D None S 15000.0 74.409 1116135.0
11/01/2021 BL BLACKLINE, INC. SMITH GRAHAM None S 5000.0 127.05 635250.0
11/01/2021 AAPL Apple Inc. Adams Katherine L. SVP, GC and Secretary S 21710.0 148.61 3226323.1
11/01/2021 NSIT INSIGHT ENTERPRISES INC LAMNECK KENNETH T Chief Executive Officer S 1000.0 97.0 97000.0
11/01/2021 LKFN LAKELAND FINANCIAL CORP BARTELS ROBERT E JR None P 660.0 72.0029 47521.914
11/01/2021 PANW Palo Alto Networks Inc ZUK NIR EVP, Chief Technology Officer S 200.0 503.368 100673.6
11/01/2021 TSC TriState Capital Holdings, Inc. GETZ JAMES F CHAIRMAN, PRESIDENT AND CEO S 3586.0 30.05 107759.3
11/01/2021 ANET Arista Networks, Inc. Sadana Anshul SVP, Chief Operating Officer S 432.0 408.9114 176649.7248
11/01/2021 ANET Arista Networks, Inc. Giancarlo Charles H None S 365.0 408.8842 149242.733
11/01/2021 NEWR NEW RELIC, INC. Cirne Lewis Executive Chairman S 8093.0 80.77 653671.61
11/01/2021 ANET Arista Networks, Inc. Taxay Marc SVP and General Counsel S 498.0 408.58 203472.84
11/01/2021 ANET Arista Networks, Inc. Ullal Jayshree President and CEO S 4500.0 408.58 1838610.0
11/01/2021 SIVB SVB FINANCIAL GROUP DRAPER MICHELLE Chief Marketing Officer S 172.0 724.19 124560.68000000001
11/01/2021 ANET Arista Networks, Inc. MATHER ANN None S 416.0 408.58 169969.28
11/01/2021 FIX COMFORT SYSTEMS USA INC Lane Brian E. President/Chief Executive Off. S 32873.0 92.6534 3045795.2182
11/01/2021 FDS FACTSET RESEARCH SYSTEMS INC Snow Frederick Philip Chief Executive Officer S 2500.0 442.91 1107275.0
11/01/2021 FICO FAIR ISAAC CORP Rees Joanna None S 250.0 398.52 99630.0
11/01/2021 ODFL OLD DOMINION FREIGHT LINE, INC. SUGGS LEO H None S 3000.0 345.03 1035089.9999999999
11/01/2021 ZION ZIONS BANCORPORATION, NATIONAL ASSOCIATION /UT/ STEPHENS STEVEN DAN Executive Vice President S 4800.0 64.39 309072.0
10/29/2021 CATY CATHAY GENERAL BANCORP BINGHAM KIM R EVP, Chief Risk Officer S 3000.0 42.6801 128040.3
10/29/2021 SXI STANDEX INTERNATIONAL CORP/DE/ Dunbar David A. President/CEO/Chairman S 2250.0 110.0 247500.0
10/29/2021 AMP AMERIPRISE FINANCIAL INC CRACCHIOLO JAMES M Chairman and CEO S 16101.0 304.4343 4901696.6643
10/29/2021 ZION ZIONS BANCORPORATION, NATIONAL ASSOCIATION /UT/ Young Mark Richard Exec VP S 403.0 63.071 25417.612999999998
10/29/2021 CNMD CONMED Corp Beyer Pat President Int'l & Global Ortho S 2789.0 144.497 403002.13300000003
10/29/2021 DRQ DRIL-QUIP INC Bird Jeffrey J. President & COO S 17216.0 22.82 392869.12
10/29/2021 TNET TRINET GROUP, INC. LOWELL WAYNE B None S 10000.0 100.9618 1009618.0
10/29/2021 TNET TRINET GROUP, INC. Chamberlain Paul Edward None S 175.0 100.1 17517.5
10/29/2021 ENPH Enphase Energy, Inc. McNeil Jeff EVP & Chief Operating Officer S 20808.0 225.4173 4690483.178400001
10/29/2021 ENPH Enphase Energy, Inc. MORA RICHARD None S 5603.0 227.7763 1276230.6088999999
10/29/2021 FIX COMFORT SYSTEMS USA INC Trent T McKenna Chief Operating Officer S 10000.0 91.3064 913064.0
10/29/2021 FIX COMFORT SYSTEMS USA INC GEORGE WILLIAM III Chief Financial Officer S 21055.0 90.9719 1915413.3545000001
10/29/2021 HSII HEIDRICK & STRUGGLES INTERNATIONAL INC Cullen Michael M Chief Operating Officer S 5232.0 46.652 244083.264
10/29/2021 AKAM AKAMAI TECHNOLOGIES INC Blumofe Robert Chief Technology Officer S 6000.0 104.15 624900.0
10/29/2021 TXN TEXAS INSTRUMENTS INC Ilan Haviv Sr. Vice President S 48000.0 187.8905 9018744.0
10/29/2021 QLYS QUALYS, INC. Thakar Sumedh S CEO & President S 100.0 125.0 12500.0
10/29/2021 QLYS QUALYS, INC. Philippe Courtot Family Trust None S 500.0 120.371 60185.5
10/29/2021 SCHW SCHWAB CHARLES CORP Schwab Charles R. Chairman S 150000.0 82.0173 12302595.0
10/29/2021 GNTX GENTEX CORP Wallace James H None S 7000.0 35.1854 246297.80000000002
10/29/2021 DRQ DRIL-QUIP INC DeBerry Blake T. CEO S 28603.0 22.82 652720.46
10/29/2021 DRQ DRIL-QUIP INC SHUKIS A P None S 2490.0 22.81 56796.899999999994
10/29/2021 GWW W.W. GRAINGER, INC. Robbins Paige K Sr. VP S 565.0 450.0 254250.0
10/29/2021 MASI MASIMO CORP KIANI JOE E CEO and Chairman of the Board S 18967.0 290.9674 5518778.6758
10/29/2021 AVY Avery Dennison Corp Baker-Nel Deena VP & Chief HR Officer S 75.0 216.98 16273.5
10/29/2021 DRQ DRIL-QUIP INC Kumar Raj VP - CFO S 4536.0 22.74 103148.64
10/29/2021 USNA USANA HEALTH SCIENCES INC Noot Walter Chief Operating Officer S 355.0 95.62 33945.1
10/29/2021 DRQ DRIL-QUIP INC Webster James C. VP - Gen Counsel & Secretary S 8384.0 22.82 191322.88
10/29/2021 PYPL PayPal Holdings, Inc. SCHULMAN DANIEL H President and CEO S 1651.0 232.38 383659.38
10/29/2021 CHRW C. H. ROBINSON WORLDWIDE, INC. Kass Jordan T President, Managed Services S 2000.0 96.437 192874.0
10/29/2021 CHCO CITY HOLDING CO HYLTON TRACY W II None P 142.0 79.3 11260.6
10/29/2021 CHCO CITY HOLDING CO FISHER ROBERT D None P 205.0 79.3 16256.5
10/29/2021 CVX CHEVRON CORP Pate R. Hewitt VP and General Counsel S 19500.0 115.0078 2242652.1
10/29/2021 DRQ DRIL-QUIP INC Jupp Terence Bartlett None S 2120.0 22.73 48187.6
10/29/2021 CVX CHEVRON CORP PARFITT COLIN E Vice President S 15000.0 115.0115 1725172.5
10/28/2021 CNC CENTENE CORP BROOKS MARK J EVP, Chief Information Officer S 8296.0 70.17 582130.3200000001
10/28/2021 CNC CENTENE CORP LAYTON BRENT D President & COO S 77.0 70.17 5403.09
10/28/2021 CNC CENTENE CORP AYALA ORLANDO None S 8430.0 70.17 591533.1
10/28/2021 SMP STANDARD MOTOR PRODUCTS, INC. SILLS PETER J None S 427.0 49.27 21038.29
10/28/2021 INTC INTEL CORP ISHRAK OMAR None P 20000.0 48.0209 960418.0
10/28/2021 INTC INTEL CORP Smith Gregory D None P 10440.0 47.9552 500652.288
10/28/2021 SCHW SCHWAB CHARLES CORP Schwab Charles R. Chairman S 155890.0 81.8037 12752378.793000001
10/28/2021 INTC INTEL CORP Liu Tsu-Jae King None P 1000.0 48.0 48000.0
10/28/2021 REGI Renewable Energy Group, Inc. Samuels Todd None S 3248.0 60.0 194880.0
10/28/2021 USNA USANA HEALTH SCIENCES INC Foukas Joshua Chief Legal Officer S 181.0 95.17 17225.77
10/28/2021 CNC CENTENE CORP GEPHARDT Richard A None S 20220.0 70.0 1415400.0
10/28/2021 PII Polaris Inc. FARR KEVIN M None S 10168.96 115.27 1172176.0191999997
10/28/2021 ANET Arista Networks, Inc. Ullal Jayshree President and CEO S 4500.0 403.49 1815705.0
10/28/2021 CMA COMERICA INC /NEW/ Buchanan John D EVP & Corporate Secretary S 5688.0 85.11 484105.68
10/28/2021 ETSY ETSY INC Silverman Josh President & CEO S 816.0 236.45 192943.19999999998
10/28/2021 CNC CENTENE CORP NEIDORFF MICHAEL F Chairman & CEO S 20000.0 70.09 1401800.0
10/28/2021 WMT Walmart Inc. McMillon C Douglas President and CEO S 9708.0 148.3983 1440650.6964
10/28/2021 GNTX GENTEX CORP GOODE GARY F None S 7800.0 35.7144 278572.32
10/28/2021 BOH BANK OF HAWAII CORP Crofts Sharon M VICE CHAIRMAN S 2642.0 84.44 223090.47999999998
10/28/2021 WAL WESTERN ALLIANCE BANCORPORATION SNYDER DONALD D None S 4150.0 114.98 477167.0
10/28/2021 INTC INTEL CORP WEISLER DION J None P 5149.0 48.18 248078.82
10/28/2021 ILMN ILLUMINA, INC. TOUSI SUSAN H SVP, Chief Commercial Officer S 100.0 414.35 41435.0
10/28/2021 AMP AMERIPRISE FINANCIAL INC Berman Walter Stanley Executive VP and CFO S 15986.0 302.3701 4833688.4185999995
10/28/2021 CNC CENTENE CORP KOSTER CHRISTOPHER SVP, Secr. & General Counsel S 14300.0 70.17 1003431.0
10/28/2021 TER TERADYNE, INC JAGIELA MARK E President and CEO S 954.0 131.5 125451.0
10/27/2021 QLYS QUALYS, INC. Philippe Courtot Family Trust None S 50700.0 120.08 6088056.0
10/27/2021 TCBI TEXAS CAPITAL BANCSHARES INC/TX STALLINGS ROBERT W None P 5000.0 58.5 292500.0
10/27/2021 SCHW SCHWAB CHARLES CORP Schwab Charles R. Chairman S 768.0 83.0 63744.0
10/27/2021 FFIV F5 NETWORKS, INC. Rogers Scot Frazier EVP and General Counsel S 469.0 215.7891 101205.0879
10/27/2021 CMA COMERICA INC /NEW/ Burkhart Megan D EVP - Chief HR Officer S 2402.0 86.955 208865.91
10/27/2021 LUV SOUTHWEST AIRLINES CO Gilligan Thomas W. None S 7541.0 47.3301 356916.2841
10/26/2021 ANET Arista Networks, Inc. Brennan Ita M Senior Vice President, CFO S 4325.0 400.4283 1731852.3975
10/26/2021 EGHT 8X8 INC /DE/ Deklich Dejan Chief Products Officer S 6903.0 22.8852 157976.5356
10/26/2021 MEDP Medpace Holdings, Inc. Keating Ashley M. None S 2000.0 210.0 420000.0
10/26/2021 ANET Arista Networks, Inc. Ullal Jayshree President and CEO S 4000.0 397.17 1588680.0
10/26/2021 SCHW SCHWAB CHARLES CORP MARTINETTO JOSEPH R Senior EVP and COO S 25255.0 83.9902 2121172.501
10/26/2021 ILMN ILLUMINA, INC. Aravanis Alexander SVP, Chief Technology Officer S 2926.0 423.0 1237698.0
10/26/2021 SON SONOCO PRODUCTS CO Tomaszewski Jeffrey S VP - Global RPC, D&P, Paper S 1700.0 59.3608 100913.36
10/26/2021 ADBE ADOBE INC. Rao Dana EVP, Gen. Counsel & Secretary S 489.0 650.91 318294.99
10/26/2021 EGHT 8X8 INC /DE/ Wilson Samuel C. Chief Financial Officer S 3452.0 22.8852 78999.71040000001
10/26/2021 PG PROCTER & GAMBLE Co Francisco Ma. Fatima CEO - Baby, Fem & Family Care S 1200.0 143.0 171600.0
10/26/2021 MEDP Medpace Holdings, Inc. GEIGER JESSE J President S 10000.0 211.36 2113600.0
10/26/2021 SCHW SCHWAB CHARLES CORP Schwab Charles R. Chairman S 96302.0 83.7199 8062393.8098
10/26/2021 SCHW SCHWAB CHARLES CORP Clark Bernard J. EVP - Advisor Services S 28370.0 84.0038 2383187.806
10/26/2021 ADBE ADOBE INC. Lewnes Ann EVP, CMO, Corp Strategy & Dev S 582.0 650.91 378829.62
10/26/2021 NTGR NETGEAR, INC. Cormack Heidi SVP, Marketing S 2700.0 31.54 85158.0
10/26/2021 DFS Discover Financial Services Glassman Cynthia A None S 3200.0 123.93 396576.0
10/26/2021 MEDP Medpace Holdings, Inc. EWALD STEPHEN P General Counsel & Corp. Secy. S 10000.0 209.13 2091300.0
10/26/2021 INTC INTEL CORP WEISLER DION J None P 2043.0 48.95 100004.85
10/26/2021 MASI MASIMO CORP KIANI JOE E CEO and Chairman of the Board S 2600.0 290.1022 754265.72
10/26/2021 JBL JABIL INC BORGES STEVEN D EVP, CEO, Regulated Industries S 7571.0 61.9653 469139.2863
10/26/2021 TTGT TechTarget Inc MARINO ROGER M None S 20000.0 90.0 1800000.0
10/26/2021 EGHT 8X8 INC /DE/ Zinn Matthew SVP-CLO, Secretary S 5369.0 22.8852 122870.6388
10/26/2021 JBL JABIL INC Katz Robert L EVP, GC, CCO & Assist.Corp Sec S 18146.0 61.9603 1124331.6038
10/25/2021 WAL WESTERN ALLIANCE BANCORPORATION Boothe Timothy W Chief Operating Officer S 2000.0 117.98 235960.0
10/25/2021 PSMT PRICESMART INC PRICE ROBERT E None S 2151.0 74.912 161135.712
10/25/2021 PSMT PRICESMART INC Price Philanthropies Foundation None S 4303.0 74.912 322346.336
10/25/2021 INTC INTEL CORP WEISLER DION J None P 5015.0 49.85 249997.75
10/25/2021 MTB M&T BANK CORP Bojdak Robert J Executive Vice President S 770.0 158.756 122242.12
10/25/2021 ANSS ANSYS INC LEE JANET VP, GC and Secretary S 2899.0 370.0 1072630.0
10/25/2021 TCBI TEXAS CAPITAL BANCSHARES INC/TX Anderson Julie L Chief Financial Officer P 4000.0 60.41 241640.0
10/25/2021 INTC INTEL CORP Yeary Frank D None P 10000.0 49.6595 496595.0
10/25/2021 INTC INTEL CORP LAVIZZO-MOUREY RISA J None P 5000.0 49.5 247500.0
10/25/2021 WSFS WSFS FINANCIAL CORP WRIGHT RICHARD EVP S 10362.0 53.26 551880.12
10/25/2021 WSFS WSFS FINANCIAL CORP EDDENS PEGGY H EVP S 10972.0 52.16 572299.52
10/25/2021 EGHT 8X8 INC /DE/ Wilson Samuel C. Chief Financial Officer S 916.0 22.45 20564.2
10/25/2021 EGHT 8X8 INC /DE/ Deklich Dejan Chief Products Officer S 1831.0 22.45 41105.95
10/25/2021 EGHT 8X8 INC /DE/ Zinn Matthew SVP-CLO, Secretary S 1363.0 22.45 30599.35
10/25/2021 TCBI TEXAS CAPITAL BANCSHARES INC/TX Browning James H None P 1000.0 59.56 59560.0
10/25/2021 CMA COMERICA INC /NEW/ OBERG JAY K. EVP - Chief Risk Officer S 3000.0 88.76 266280.0
10/25/2021 JBL JABIL INC Wilson Kenneth S EVP, CEO, Green Point S 698.0 62.7002 43764.7396
10/25/2021 INTC INTEL CORP GOETZ JAMES J None P 20000.0 49.76 995200.0
10/25/2021 SCHW SCHWAB CHARLES CORP MARTINETTO JOSEPH R Senior EVP and COO S 230.0 83.9943 19318.689
10/25/2021 INTC INTEL CORP GELSINGER PATRICK P CEO P 10000.0 49.9398 499398.0
10/25/2021 SCHW SCHWAB CHARLES CORP Clark Bernard J. EVP - Advisor Services S 300.0 84.0 25200.0
10/25/2021 SCHW SCHWAB CHARLES CORP Schwab Charles R. Chairman S 23698.0 83.0526 1968180.5148
10/25/2021 GNTX GENTEX CORP Ryan Scott P General Counsel S 9224.0 34.27 316106.48000000004
10/25/2021 ETSY ETSY INC SCOTT RYAN M. Chief Marketing Officer S 1306.0 250.0 326500.0
10/25/2021 ETSY ETSY INC Silverman Josh President & CEO S 16500.0 250.0 4125000.0
10/25/2021 ETSY ETSY INC PATEL GOYAL KRUTI Chief Product Officer S 4524.0 250.0 1131000.0
10/25/2021 DFS Discover Financial Services Minetti Carlos EVP, Pres. - Consumer Banking S 22000.0 123.679 2720938.0
10/25/2021 UNH UNITEDHEALTH GROUP INC HEMSLEY STEPHEN J None S 32014.0 448.043 14343648.602
10/25/2021 HAE HAEMONETICS CORP Strong Stewart W President, Global Hospital S 75.0 71.93 5394.750000000001
10/25/2021 HAE HAEMONETICS CORP Basil Michelle L EVP and General Counsel S 120.0 71.93 8631.6
10/25/2021 ZION ZIONS BANCORPORATION, NATIONAL ASSOCIATION /UT/ Maio Keith D EVP - Chief Risk Officer S 8000.0 66.285 530280.0
10/25/2021 ZION ZIONS BANCORPORATION, NATIONAL ASSOCIATION /UT/ ALEXANDER BRUCE K Exec VP and S 2946.0 66.39 195584.94
10/25/2021 ADBE ADOBE INC. Chen Gloria EVP, Chief People Officer S 42.0 644.47 27067.74
10/25/2021 FITB FIFTH THIRD BANCORP Garrett Kristine R. EVP S 10740.0 45.61 489851.39999999997
10/25/2021 TNET TRINET GROUP, INC. Goldfield Burton M. PRESIDENT, CEO and DIRECTOR S 680.0 95.4068 64876.624
10/25/2021 JPM JPMORGAN CHASE & CO Piepszak Jennifer Co-CEO CCB S 3173.0 171.2575 543400.0475
10/25/2021 NTAP NetApp, Inc. Kurian George CEO S 4250.0 93.22 396185.0
10/25/2021 JPM JPMORGAN CHASE & CO Beer Lori A Chief Information Officer S 5210.0 171.2203 892057.763
10/22/2021 ISRG INTUITIVE SURGICAL INC DeSantis Robert EVP & Chief Product Officer S 198.0 339.75 67270.5
10/22/2021 BOKF BOK FINANCIAL CORP BRADSHAW STEVEN G President & CEO S 10000.0 100.1923 1001923.0
10/22/2021 TCBI TEXAS CAPITAL BANCSHARES INC/TX HELM LARRY L None P 5000.0 60.52 302600.0
10/22/2021 CMA COMERICA INC /NEW/ Humrichouse Ximena G None S 460.0 88.395 40661.7
10/22/2021 TDC TERADATA CORP /DE/ CHOU TIMOTHY C K None S 2729.0 59.0 161011.0
10/22/2021 SCHW SCHWAB CHARLES CORP Crawford Peter B. EVP and CFO S 11000.0 83.3758 917133.7999999999
10/22/2021 NTRS NORTHERN TRUST CORP Cherecwich Peter President/C&IS S 3568.0 126.25 450460.0
10/22/2021 JBHT HUNT J B TRANSPORT SERVICES INC Field Darren P. EVP Intermodal S 1000.0 196.44 196440.0
10/22/2021 NTRS NORTHERN TRUST CORP Parker Teresa Executive Vice President S 4000.0 125.22 500880.0
10/22/2021 CMA COMERICA INC /NEW/ WEBER JAMES HARRY Executive Vice President S 690.0 88.55 61099.5
10/22/2021 ISRG INTUITIVE SURGICAL INC Samath Jamie SVP of Finance S 156.0 339.7065 52994.214
10/22/2021 TCBI TEXAS CAPITAL BANCSHARES INC/TX STALLINGS ROBERT W None P 35000.0 60.87 2130450.0
10/22/2021 ISRG INTUITIVE SURGICAL INC Curet Myriam EVP & Chief Medical Officer S 6000.0 339.6384 2037830.4
10/22/2021 TCBI TEXAS CAPITAL BANCSHARES INC/TX Huntley David S. None P 825.0 60.57 49970.25
10/22/2021 ILMN ILLUMINA, INC. Dadswell Charles SVP & General Counsel S 314.0 411.0 129054.0
10/22/2021 SCHW SCHWAB CHARLES CORP Murtagh Nigel J EVP - Corporate Risk S 28000.0 83.2583 2331232.4000000004
10/22/2021 SCHW SCHWAB CHARLES CORP Schwab Charles R. Chairman S 120000.0 82.56 9907200.0
10/22/2021 JBL JABIL INC BORGES STEVEN D EVP, CEO, Regulated Industries S 4690.0 62.9682 295320.858
10/22/2021 JBL JABIL INC JOHNSON BRUCE ALLAN EVP, Chief Human Resources S 4549.0 63.0179 286668.4271
10/22/2021 ISRG INTUITIVE SURGICAL INC LEVY ALAN J None S 3000.0 339.6375 1018912.5
10/22/2021 CDNS CADENCE DESIGN SYSTEMS INC Cunningham Paul Sr. Vice President S 1000.0 165.81 165810.0
10/22/2021 AZO AUTOZONE INC Daniele Philip B. Executive Vice President S 20.0 1830.0 36600.0
10/22/2021 NSP INSPERITY, INC. RAWSON RICHARD G None S 7397.0 121.92 901842.24
10/22/2021 QLYS QUALYS, INC. Philippe Courtot Family Trust None S 84061.0 117.836 9905411.996
10/21/2021 FTNT Fortinet, Inc. Whittle John VP Corp Dev&Strat Alliance,GC S 508.0 328.4144 166834.5152
10/21/2021 TNET TRINET GROUP, INC. Babinec Martin None S 14800.0 96.7303 1431608.44
10/21/2021 HBAN HUNTINGTON BANCSHARES INC /MD/ Litsey Jana J General Counsel S 6000.0 16.75 100500.0
10/21/2021 DECK DECKERS OUTDOOR CORP Powers David President & CEO S 2225.0 380.0 845500.0
10/21/2021 SMP STANDARD MOTOR PRODUCTS, INC. SILLS PETER J None S 2841.0 47.27 134294.07
10/21/2021 AMKR AMKOR TECHNOLOGY, INC. Faust Megan CFO S 5000.0 22.94 114700.0
10/21/2021 CDNS CADENCE DESIGN SYSTEMS INC BECKLEY THOMAS P Sr. Vice President S 30944.0 165.0 5105760.0
10/21/2021 HBAN HUNTINGTON BANCSHARES INC /MD/ Tutkovics Julie C Exec. VP of Principal Sub. S 3544.0 16.7 59184.799999999996
10/20/2021 NSP INSPERITY, INC. RAWSON RICHARD G None S 4700.0 119.02 559394.0
10/20/2021 QLYS QUALYS, INC. POSEY BRUCE K VP, GC and Corp. Sec. S 767.0 113.1593 86793.1831
10/20/2021 TNET TRINET GROUP, INC. BINGHAM H RAYMOND None S 385.0 97.0996 37383.346
10/20/2021 NTGR NETGEAR, INC. MERRILL MARK G CTO S 3000.0 33.23 99689.99999999999
10/20/2021 ZEN Zendesk, Inc. Abildgaard Soren EVP of Engineering S 251.0 129.0 32379.0
10/20/2021 SCHW SCHWAB CHARLES CORP Bettinger Walter W CEO S 206025.0 81.1928 16727746.620000001
10/20/2021 HBAN HUNTINGTON BANCSHARES INC /MD/ Pohle Richard A Executive Vice President S 4837.0 16.5 79810.5
10/20/2021 LNC LINCOLN NATIONAL CORP GLASS DENNIS R President & CEO S 150000.0 75.08 11262000.0
10/20/2021 MPWR MONOLITHIC POWER SYSTEMS INC BLEGEN THEODORE CFO S 1897.0 496.59 942031.23
10/20/2021 ANGO ANGIODYNAMICS INC Helsel Dave SVP Global Operations and R&D S 3494.0 27.97 97727.18
10/20/2021 QLYS QUALYS, INC. Philippe Courtot Family Trust None S 22810.0 115.1096 2625649.976
10/20/2021 CVX CHEVRON CORP INCHAUSTI DAVID A Vice Pres. and Controller S 5600.0 112.0116 627264.96
10/20/2021 CVX CHEVRON CORP JOHNSON JAMES WILLIAM Executive Vice President S 78000.0 113.1259 8823820.2
10/20/2021 SCHW SCHWAB CHARLES CORP Schwab Charles R. Chairman S 185250.0 81.1844 15039410.1
10/19/2021 BL BLACKLINE, INC. Tucker Therese Executive Chair S 7721.0 124.028 957620.1880000001
10/19/2021 AAPL Apple Inc. Maestri Luca Senior Vice President, CFO S 165829.0 148.62 24645505.98
10/19/2021 ILMN ILLUMINA, INC. Aravanis Alexander SVP, Chief Technology Officer S 600.0 410.42 246252.0
10/19/2021 BR BROADRIDGE FINANCIAL SOLUTIONS, INC. PERRY CHRISTOPHER JOHN President S 10104.0 180.1372 1820106.2688
10/19/2021 SNV SYNOVUS FINANCIAL CORP Stelling Kessel D Executive Chairman S 50000.0 47.76 2388000.0
10/19/2021 JBL JABIL INC Wilson Kenneth S EVP, CEO, Green Point S 4998.0 61.7667 308709.9666
10/19/2021 SCHW SCHWAB CHARLES CORP Bettinger Walter W CEO S 245239.0 81.1186 19893444.3454
10/19/2021 XYL Xylem Inc. Sabol Colin R Senior Vice President S 1900.0 125.8231 239063.88999999998
10/19/2021 HUBS HUBSPOT INC Halligan Brian Executive Chair S 800.0 790.45 632360.0
10/18/2021 EGHT 8X8 INC /DE/ Deklich Dejan Chief Products Officer S 2529.0 23.5561 59573.3769
10/18/2021 QLYS QUALYS, INC. Philippe Courtot Family Trust None S 28748.0 115.2345 3312761.406
10/18/2021 AAPL Apple Inc. O'BRIEN DEIRDRE Senior Vice President S 17108.0 146.32 2503242.56
10/18/2021 SCHW SCHWAB CHARLES CORP Schwab Charles R. Chairman S 13000.0 80.3366 1044375.8
10/18/2021 SCHW SCHWAB CHARLES CORP DODDS CHRISTOPHER V None S 11094.0 80.3813 891750.1422
10/18/2021 JBL JABIL INC BORGES STEVEN D EVP, CEO, Regulated Industries S 754.0 62.2145 46909.733
10/18/2021 EGHT 8X8 INC /DE/ MARTIN BRYAN R Chief Technology Officer S 568.0 23.5561 13379.864800000001
10/18/2021 EGHT 8X8 INC /DE/ Cota Germaine Chief Accting Off./Treasurer S 826.0 23.556 19457.256
10/18/2021 EGHT 8X8 INC /DE/ Zinn Matthew SVP-CLO, Secretary S 1125.0 23.556 26500.5
10/18/2021 COUP Coupa Software Inc BERNSHTEYN ROBERT Chief Executive Officer S 17058.0 249.0269 4247900.8602
10/18/2021 NSP INSPERITY, INC. RAWSON RICHARD G None S 5937.0 116.11 689345.07
10/18/2021 TTGT TechTarget Inc MARINO ROGER M None S 18703.0 87.38 1634268.14
10/18/2021 MCFT MasterCraft Boat Holdings, Inc. Campion Donald C None S 4641.0 26.47 122847.26999999999
10/15/2021 PAYX PAYCHEX INC Gioja Michael E Sr. Vice President S 8000.0 118.94 951520.0
10/15/2021 FAST FASTENAL CO Nielsen Sarah N None P 1000.0 55.76 55760.0
10/15/2021 SSD Simpson Manufacturing Co., Inc. Magstadt Brian J Chief Financial Officer S 2000.0 117.36 234720.0
10/15/2021 BKNG Booking Holdings Inc. Fogel Glenn D CEO and President S 58.0 2521.92 146271.36000000002
10/15/2021 TRUE TrueCar, Inc. Buce Robert None S 10952.0 4.5008 49292.7616
10/15/2021 BKNG Booking Holdings Inc. GOULDEN DAVID I Chief Financial Officer S 183.0 2520.0 461160.0
10/15/2021 AMKR AMKOR TECHNOLOGY, INC. Rutten Guillaume Marie Jean President and CEO S 25000.0 22.43 560750.0
10/15/2021 EXPE Expedia Group, Inc. Athey Susan C None S 212.0 171.0 36252.0
10/15/2021 ZEN Zendesk, Inc. Gennaro Norman President of Sales S 5000.0 124.87 624350.0
10/15/2021 FFIV F5 NETWORKS, INC. Pelzer Francis J. EVP, Chief Financial Officer S 1200.0 205.09 246108.0
10/15/2021 SCHW SCHWAB CHARLES CORP MARTINETTO JOSEPH R Senior EVP and COO S 10031.0 79.42 796662.02
10/15/2021 TDC TERADATA CORP /DE/ Treese Margaret A Chief Legal Officer S 2304.0 57.68 132894.72
10/15/2021 PLUS EPLUS INC Marion Elaine D Chief Financial Officer S 1516.0 108.9914 165230.9624
10/15/2021 ALLY Ally Financial Inc. LaClair Jennifer A. Chief Financial Officer S 1500.0 55.0 82500.0
10/15/2021 ANGO ANGIODYNAMICS INC Centea Scott Sr. VP/GM, Global VIT S 12000.0 27.92 335040.0
10/15/2021 MORN Morningstar, Inc. Mansueto Joseph D Executive Chairman S 4020.0 273.4302 1099189.404
10/15/2021 CSWI CSW INDUSTRIALS, INC. Armes Joseph B Chairman, President & CEO S 1000.0 137.8 137800.0
10/15/2021 ZEN Zendesk, Inc. Svane Mikkel Chair and CEO S 37975.0 124.8364 4740662.29
10/15/2021 FDS FACTSET RESEARCH SYSTEMS INC Skoko Goran EVP, Research & Advisory S 982.0 415.46 407981.72
10/15/2021 PII Polaris Inc. Vogel Jacob President-Boats S 1298.0 130.0 168740.0
10/15/2021 BR BROADRIDGE FINANCIAL SOLUTIONS, INC. PERRY CHRISTOPHER JOHN President S 902.0 180.0083 162367.4866
10/15/2021 PAYX PAYCHEX INC Bottini Mark Anthony Sr. VP of Sales S 15772.0 118.93 1875763.9600000002
10/15/2021 ANET Arista Networks, Inc. Ullal Jayshree President and CEO S 4000.0 394.88 1579520.0
10/15/2021 JBLU JETBLUE AIRWAYS CORP Hayes Robin CEO S 1000.0 15.71 15710.0
10/15/2021 CDNS CADENCE DESIGN SYSTEMS INC TAN LIP BU CEO S 38862.0 155.9427 6060245.2074
10/15/2021 QLYS QUALYS, INC. Thakar Sumedh S CEO & President S 3000.0 114.7664 344299.2
10/15/2021 ETSY ETSY INC PATEL GOYAL KRUTI Chief Product Officer S 96.0 217.1 20841.6
10/14/2021 CAMP CalAmp Corp. GARDNER JEFFERY R President & CEO P 500.0 10.07 5035.0
10/14/2021 QLYS QUALYS, INC. Philippe Courtot Family Trust None S 27262.0 115.0584 3136722.1008
10/14/2021 JPM JPMORGAN CHASE & CO Scher Peter Executive Vice President S 4372.0 162.4129 710069.1988
10/14/2021 PSMT PRICESMART INC Price Philanthropies Foundation None S 2500.0 77.6053 194013.25
10/14/2021 ETSY ETSY INC Silverman Josh President & CEO S 3648.0 216.57 790047.36
10/14/2021 JPM JPMORGAN CHASE & CO Beer Lori A Chief Information Officer S 7829.0 162.457 1271875.853
10/14/2021 JPM JPMORGAN CHASE & CO Leopold Robin Head of Human Resources S 1238.0 162.4149 201069.6462
10/14/2021 IPAR INTER PARFUMS INC GREENBERG RUSSELL EX VP AND CFO S 645.0 78.5 50632.5
10/14/2021 HUBS HUBSPOT INC Kelleher John P. General Counsel S 761.0 790.04 601220.44
10/14/2021 BL BLACKLINE, INC. Partin Mark Chief Financial Officer S 3957.0 125.4663 496470.14910000004
10/14/2021 PSMT PRICESMART INC PRICE ROBERT E None S 1250.0 77.6053 97006.625
10/13/2021 MORN Morningstar, Inc. Mansueto Joseph D Executive Chairman S 5534.0 267.1424 1478366.0416
10/13/2021 BBY BEST BUY CO INC Bass Robert L Chief SC & Global Prop Officer S 5823.0 110.5051 643471.1973
10/13/2021 UNFI UNITED NATURAL FOODS INC Dorne Eric A. COO S 7866.0 45.94 361364.04
10/13/2021 ANET Arista Networks, Inc. Ullal Jayshree President and CEO S 3000.0 381.81 1145430.0
10/13/2021 UNFI UNITED NATURAL FOODS INC Bates Ann Torre None S 9326.0 44.84 418177.84
10/12/2021 SMP STANDARD MOTOR PRODUCTS, INC. BURKS DALE EVP & Chief Commercial Officer S 1629.0 46.76 76172.04
10/12/2021 SMP STANDARD MOTOR PRODUCTS, INC. Broccole Carmine Joseph CLO & Secretary S 1124.0 46.59 52367.16
10/12/2021 ILMN ILLUMINA, INC. Aravanis Alexander SVP, Chief Technology Officer S 423.0 407.29 172283.67
10/12/2021 ZEN Zendesk, Inc. Geschke John Chief of Staff S 950.0 110.6968 105161.95999999999
10/12/2021 SMP STANDARD MOTOR PRODUCTS, INC. Tesoro Thomas C H R O S 1200.0 46.76 56112.0
10/12/2021 BL BLACKLINE, INC. Tucker Therese Executive Chair S 1266.0 117.6358 148926.9228
10/12/2021 MCFT MasterCraft Boat Holdings, Inc. Campion Donald C None S 2069.0 26.46 54745.740000000005
10/12/2021 SMP STANDARD MOTOR PRODUCTS, INC. Sills Eric CEO & President S 1996.0 46.76 93332.95999999999
10/12/2021 SMP STANDARD MOTOR PRODUCTS, INC. Nicholas Ray CIO & VP IT S 1018.0 46.59 47428.62
10/12/2021 WSM WILLIAMS SONOMA INC ALBER LAURA PRESIDENT & CEO S 4500.0 170.78 768510.0
10/11/2021 MCFT MasterCraft Boat Holdings, Inc. Campion Donald C None S 2844.0 26.4 75081.59999999999
10/11/2021 SCHW SCHWAB CHARLES CORP Craig Jonathan M. Senior EVP S 11598.0 77.9802 904414.3596
10/11/2021 SCHW SCHWAB CHARLES CORP Clark Bernard J. EVP - Advisor Services S 29977.0 78.1595 2342987.3315
10/11/2021 SCHW SCHWAB CHARLES CORP Schwab Charles R. Chairman S 28000.0 78.4974 2197927.2
10/11/2021 NTGR NETGEAR, INC. WERDANN MICHAEL A SVP, World Wide Sales S 1875.0 32.92 61725.0
10/11/2021 BOH BANK OF HAWAII CORP HO PETER S Chairman, CEO and President S 5834.0 83.38 486438.92
10/11/2021 MU MICRON TECHNOLOGY INC Poppen Joel L SVP, General Counsel&Secretary S 4484.0 69.81 313028.04000000004
10/11/2021 ANET Arista Networks, Inc. Duda Kenneth CTO and SVP Software Eng. S 500.0 372.738 186369.0
10/11/2021 CNC CENTENE CORP GEPHARDT Richard A None S 3300.0 64.13 211628.99999999997
10/11/2021 PSMT PRICESMART INC PRICE ROBERT E None S 2515.0 78.5423 197533.8845
10/11/2021 POWI POWER INTEGRATIONS INC Bailey Doug VP Marketing S 1000.0 99.0 99000.0
10/11/2021 SSTK Shutterstock, Inc. Oringer Jonathan Executive Chairman S 1000.0 118.3 118300.0
10/11/2021 JBL JABIL INC Loparco Michael J EVP, CEO, EMS S 1000.0 64.0 64000.0
10/11/2021 BL BLACKLINE, INC. Partin Mark Chief Financial Officer S 1050.0 116.8374 122679.27
10/11/2021 PSMT PRICESMART INC Price Philanthropies Foundation None S 5032.0 78.5423 395224.8536
10/11/2021 SCHW SCHWAB CHARLES CORP MARTINETTO JOSEPH R Senior EVP and COO S 25484.0 78.0528 1989097.5552
10/08/2021 NX Quanex Building Products CORP Mendes Meredith W. None P 700.0 21.49 15042.999999999998
10/08/2021 ATRC AtriCure, Inc. Austin Tonya Chief Human Resources Officer S 665.0 71.8 47747.0
10/08/2021 MORN Morningstar, Inc. Mansueto Joseph D Executive Chairman S 2790.0 271.8885 758568.915
10/08/2021 TTGT TechTarget Inc Cotoia Michael Chief Executive Officer S 5000.0 83.79 418950.00000000006
10/08/2021 UNFI UNITED NATURAL FOODS INC Green Paul Scott President, Fresh S 7481.0 47.61 356170.41
10/07/2021 SMP STANDARD MOTOR PRODUCTS, INC. SILLS PETER J None S 8103.0 45.56 369172.68
10/07/2021 KR KROGER CO Wheatley Christine S Group Vice President S 25322.0 39.682 1004827.604
10/07/2021 SSTK Shutterstock, Inc. Oringer Jonathan Executive Chairman S 1200.0 115.73 138876.0
10/07/2021 NSP INSPERITY, INC. ARIZPE ARTHUR A President and COO S 5000.0 120.28 601400.0
10/07/2021 UNFI UNITED NATURAL FOODS INC Bates Ann Torre None S 20326.0 46.95 954305.7000000001
10/07/2021 BR BROADRIDGE FINANCIAL SOLUTIONS, INC. DALY RICHARD J Executive Chairman S 73300.0 168.4322 12346080.26
10/07/2021 BBY BEST BUY CO INC Eldracher Deborah DiSanzo President, Best Buy Health S 14.0 107.646 1507.044
10/07/2021 ANET Arista Networks, Inc. Sadana Anshul SVP, Chief Operating Officer S 3698.0 360.2543 1332220.4014
10/07/2021 WSM WILLIAMS SONOMA INC Benson Marta PRESIDENT POTTERY BARN BRAND S 2798.0 172.08 481479.84
10/06/2021 MORN Morningstar, Inc. Mansueto Joseph D Executive Chairman S 1450.0 262.5116 380641.82
10/06/2021 RS RELIANCE STEEL & ALUMINUM CO HOFFMAN JAMES DONALD CEO S 5000.0 141.43 707150.0
10/06/2021 COUP Coupa Software Inc Baratta Maurizio Chief Accounting Officer S 394.0 212.72 83811.68
10/06/2021 HIBB HIBBETT INC LONGO MICHAEL E President and CEO P 5000.0 70.0761 350380.5
10/06/2021 HUBS HUBSPOT INC Bueker Kathryn Chief Financial Officer S 600.0 640.0 384000.0
10/06/2021 ZEN Zendesk, Inc. Abildgaard Soren EVP of Engineering S 2188.0 110.67 242145.96
10/06/2021 UNFI UNITED NATURAL FOODS INC Dorne Eric A. COO S 9319.0 47.23 440136.37
10/06/2021 TNET TRINET GROUP, INC. BINGHAM H RAYMOND None S 154.0 98.2131 15124.8174
10/05/2021 KR KROGER CO Foley Todd A Vice President & Controller S 28874.0 39.828 1149993.672
10/05/2021 HQY HEALTHEQUITY, INC. McCowan Debra Charlotte None S 8132.0 65.9909 536637.9988
10/05/2021 SSTK Shutterstock, Inc. Oringer Jonathan Executive Chairman S 7808.0 112.73 880195.8400000001
10/05/2021 HUBS HUBSPOT INC Shah Dharmesh Chief Technology Officer S 5464.0 650.3 3553239.1999999997
10/05/2021 ANGO ANGIODYNAMICS INC Campbell Chad Thomas SVP/GM, Vascular Access S 10748.0 27.15 291808.2
10/05/2021 ANSS ANSYS INC Emswiler Shane SVP, Products S 436.0 335.65 146343.4
10/05/2021 NTGR NETGEAR, INC. LO PATRICK CS CEO S 7817.0 32.69 255537.72999999998
10/05/2021 BL BLACKLINE, INC. Tucker Therese Executive Chair S 500.0 115.704 57852.0
10/05/2021 BR BROADRIDGE FINANCIAL SOLUTIONS, INC. DALY RICHARD J Executive Chairman S 33118.0 164.0178 5431941.5004
10/05/2021 MORN Morningstar, Inc. Mansueto Joseph D Executive Chairman S 374.0 255.3399 95497.1226
10/05/2021 CASY CASEYS GENERAL STORES INC RENDA LARREE M None S 1666.0 189.91 316390.06
10/04/2021 PRGS PROGRESS SOFTWARE CORP /MA SEGAL JEREMY Executive Vice President S 1281.0 49.3014 63155.0934
10/04/2021 PLUS EPLUS INC RAIGUEL DARREN S Chief Operating Officer S 1110.0 102.4608 113731.48800000001
10/04/2021 PLUS EPLUS INC MARRON MARK P Chief Executive Officer S 1054.0 102.4737 108007.27979999999
10/04/2021 FFIV F5 NETWORKS, INC. WHITE ANA MARIA EVP and Chief HR Officer S 169.0 199.91 33784.79
10/04/2021 BOH BANK OF HAWAII CORP HO PETER S Chairman, CEO and President S 5833.0 83.23 485480.59
10/04/2021 AAPL Apple Inc. WILLIAMS JEFFREY E COO S 165829.0 138.83 23022040.07
10/04/2021 AAPL Apple Inc. O'BRIEN DEIRDRE Senior Vice President S 89437.0 138.83 12416538.71
10/04/2021 HBAN HUNTINGTON BANCSHARES INC /MD/ Syal Rajeev SEVP S 213.0 16.0 3408.0
10/04/2021 TER TERADYNE, INC Burns Richard John President, Semiconductor Test S 261.0 108.43 28300.230000000003
10/04/2021 ROK ROCKWELL AUTOMATION, INC Nardecchia Christopher SVP, Chief Information Officer S 264.0 291.415 76933.56000000001
10/04/2021 UNFI UNITED NATURAL FOODS INC ROY PETER None S 10000.0 47.07 470700.0
10/04/2021 PANW Palo Alto Networks Inc MCLAUGHLIN MARK D None S 160.0 476.045 76167.2
10/04/2021 UMBF UMB FINANCIAL CORP KEMPER J MARINER Chairman and CEO S 100.0 99.91 9991.0
10/04/2021 SCHW SCHWAB CHARLES CORP Schwab Charles R. Chairman S 28000.0 74.4668 2085070.4000000001
10/04/2021 MSCI MSCI Inc. Pettit CD Baer President & COO S 400.0 600.0 240000.0
10/04/2021 DRI DARDEN RESTAURANTS INC Madonna John W. SVP, Corporate Controller S 2674.0 155.4475 415666.615
10/04/2021 CNMD CONMED Corp Garner Todd W Executive Vice President & CFO S 58.0 129.327 7500.966
10/01/2021 NTGR NETGEAR, INC. LO PATRICK CS CEO S 602.0 32.67 19667.34
10/01/2021 EXR Extra Space Storage Inc. Margolis Joseph D Chief Executive Officer S 3750.0 168.8052 633019.5
10/01/2021 IPGP IPG PHOTONICS CORP Samartsev Igor SVP, Chief Technology Officer S 500.0 159.27 79635.0
10/01/2021 HPQ HP INC LORES ENRIQUE President and CEO S 34000.0 27.53 936020.0
10/01/2021 HQY HEALTHEQUITY, INC. Otten William Robert None S 1850.0 65.1851 120592.43500000001
10/01/2021 NSP INSPERITY, INC. ARIZPE ARTHUR A President and COO S 5000.0 115.52 577600.0
10/01/2021 XYL Xylem Inc. Pine Matthew Francis Senior Vice President S 2000.0 121.4177 242835.4
10/01/2021 TTGT TechTarget Inc Hawk Don Executive Director S 10000.0 82.53 825300.0
10/01/2021 PANW Palo Alto Networks Inc ZUK NIR EVP, Chief Technology Officer S 600.0 475.405 285243.0
10/01/2021 JBLU JETBLUE AIRWAYS CORP Hayes Robin CEO S 1000.0 15.7 15700.0
10/01/2021 MPWR MONOLITHIC POWER SYSTEMS INC Hsing Michael CEO S 11020.0 476.16 5247283.2
10/01/2021 MPWR MONOLITHIC POWER SYSTEMS INC Tseng Saria VP & General Counsel S 4330.0 476.16 2061772.8
10/01/2021 DRQ DRIL-QUIP INC Webster James C. VP - Gen Counsel & Secretary S 3349.0 25.81 86437.69
10/01/2021 SIVB SVB FINANCIAL GROUP DRAPER MICHELLE Chief Marketing Officer S 127.0 650.0 82550.0
10/01/2021 AFL AFLAC INC MOSKOWITZ JOSEPH L None S 100.0 52.28 5228.0
10/01/2021 NEWR NEW RELIC, INC. Cirne Lewis Executive Chairman S 9048.0 73.04 660865.92
10/01/2021 FDS FACTSET RESEARCH SYSTEMS INC Robie Robert J. EVP, Head of Trading&Analytics S 2838.0 392.4 1113631.2
10/01/2021 FDS FACTSET RESEARCH SYSTEMS INC Snow Frederick Philip Chief Executive Officer S 2500.0 397.59 993974.9999999999
10/01/2021 UVE UNIVERSAL INSURANCE HOLDINGS, INC. DOWNES SEAN P None S 20000.0 12.9007 258014.0
10/01/2021 DRQ DRIL-QUIP INC Bird Jeffrey J. President & COO S 3357.0 25.82 86677.74
10/01/2021 MPWR MONOLITHIC POWER SYSTEMS INC Sciammas Maurice Sr. V.P.of Sales and Marketing S 4330.0 476.16 2061772.8
10/01/2021 MPWR MONOLITHIC POWER SYSTEMS INC BLEGEN THEODORE CFO S 910.0 476.16 433305.60000000003
10/01/2021 CAL CALERES INC HANNAH KEN SVP, Chief Financial Officer S 8600.0 22.4411 192993.46
10/01/2021 DRQ DRIL-QUIP INC DeBerry Blake T. CEO S 3344.0 25.81 86308.64
10/01/2021 SSTK Shutterstock, Inc. Oringer Jonathan Executive Chairman S 1800.0 112.4 202320.0
10/01/2021 SSD Simpson Manufacturing Co., Inc. Dankel Roger President, Simpson Strong-Tie S 1500.0 107.77 161655.0
10/01/2021 ANET Arista Networks, Inc. Taxay Marc SVP and General Counsel S 501.0 345.0 172845.0
10/01/2021 ANET Arista Networks, Inc. MATHER ANN None S 417.0 345.0 143865.0
10/01/2021 ANET Arista Networks, Inc. Giancarlo Charles H None S 300.0 341.7699 102530.97
10/01/2021 SNV SYNOVUS FINANCIAL CORP HOLLADAY MARK G EVP & Chief Risk Officer S 1500.0 44.12 66180.0
10/01/2021 SRDX SURMODICS INC Maharaj Gary R President & CEO S 5500.0 55.9692 307830.6
10/01/2021 UNFI UNITED NATURAL FOODS INC Stigers Michael C CEO CUB S 35157.0 48.04 1688942.28
10/01/2021 ALLY Ally Financial Inc. Morais Diane E. President, Ally Bank S 4125.0 51.41 212066.25
10/01/2021 ALLY Ally Financial Inc. Timmerman Douglas R. President, Auto Finance S 2917.0 51.41 149962.97
10/01/2021 ALLY Ally Financial Inc. Schugel Jason E. Chief Risk Officer S 2500.0 51.41 128524.99999999999
10/01/2021 ALLY Ally Financial Inc. LaClair Jennifer A. Chief Financial Officer S 3333.0 51.41 171349.53
10/01/2021 ETSY ETSY INC Buckley Merilee Chief Accounting Officer S 744.0 200.0 148800.0
10/01/2021 ETSY ETSY INC Glaser Rachel C Chief Financial Officer S 643.0 199.22 128098.46
10/01/2021 ETSY ETSY INC SCOTT RYAN M. Chief Marketing Officer S 763.0 199.74 152401.62
10/01/2021 DECK DECKERS OUTDOOR CORP Lafitte David E. COO S 500.0 360.73 180365.0
10/01/2021 MLAB MESA LABORATORIES INC /CO/ Sullivan John James None S 1250.0 304.48 380600.0
10/01/2021 INGR Ingredion Inc Xu Jinghuai SVP, Chief Innovation Officer S 0.025 90.48 2.262
09/30/2021 UNFI UNITED NATURAL FOODS INC Bates Ann Torre None S 7007.0 47.71 334303.97000000003
09/30/2021 MMS MAXIMUS, INC. Weipert Teresa General Mgr US Federal Segment S 511.0 83.2 42515.200000000004
09/30/2021 MMS MAXIMUS, INC. MONTONI RICHARD A Vice Chairman S 6234.0 83.2 518668.80000000005
09/30/2021 MMS MAXIMUS, INC. Link Michelle F. Chief of Human Resources S 1133.0 83.2 94265.6
09/30/2021 COUP Coupa Software Inc Baratta Maurizio Chief Accounting Officer S 421.0 217.03 91369.63
09/30/2021 MMS MAXIMUS, INC. Nadeau Richard John Chief Financial Officer S 6131.0 83.2 510099.2
09/30/2021 TNET TRINET GROUP, INC. Chamberlain Paul Edward None S 175.0 95.88 16779.0
09/30/2021 SNV SYNOVUS FINANCIAL CORP Stelling Kessel D Executive Chairman S 4141.0 45.0 186345.0
09/30/2021 MORN Morningstar, Inc. Mansueto Joseph D Executive Chairman S 350.0 263.0931 92082.58499999999
09/30/2021 TCX TUCOWS INC /PA/ NOSS ELLIOT Chief Executive Officer S 10000.0 77.46 774599.9999999999
09/30/2021 MMS MAXIMUS, INC. FRANCIS DAVID General Counsel S 5788.0 83.2 481561.60000000003
09/30/2021 ENPH Enphase Energy, Inc. Kothandaraman Badrinarayanan President & CEO S 25272.0 150.3676 3800089.9872000003
09/30/2021 NEOG NEOGEN CORP Lilly Jason Warren Vice President S 15998.0 43.7211 699450.1578
09/30/2021 ETSY ETSY INC Silverman Josh President & CEO S 1497.0 207.28 310298.16
09/30/2021 FDS FACTSET RESEARCH SYSTEMS INC ZIMMEL JOSEPH None S 2024.0 398.78 807130.72
09/29/2021 HSII HEIDRICK & STRUGGLES INTERNATIONAL INC Cullen Michael M Chief Operating Officer S 1300.0 43.3202 56316.26
09/29/2021 INTU INTUIT INC FLOURNOY MARK J SVP, Chief Accounting Officer S 389.0 551.33 214467.37000000002
09/29/2021 NEOG NEOGEN CORP Quinlan Steven J. Vice President & CFO S 5700.0 44.0455 251059.34999999998
09/29/2021 BKE BUCKLE INC NELSON DENNIS H PRESIDENT & CEO S 15000.0 44.0014 660021.0
09/28/2021 CAL CALERES INC Koch Douglas SVP, Strategic Projects S 15806.0 24.0562 380232.29720000003
09/28/2021 SCHL SCHOLASTIC CORP Hukkanen Paul Chief Accounting Officer S 1301.0 35.36 46003.36
09/28/2021 SCHW SCHWAB CHARLES CORP Craig Jonathan M. Senior EVP S 902.0 77.9555 70315.861
09/28/2021 REGI Renewable Energy Group, Inc. Stone Chad SVP, Commercial Performance S 774.0 51.0 39474.0
09/28/2021 DRI DARDEN RESTAURANTS INC MENSAH NANA None S 1100.0 156.62 172282.0
09/28/2021 UNFI UNITED NATURAL FOODS INC Dorne Eric A. COO S 1897.0 40.0 75880.0
09/28/2021 APOG APOGEE ENTERPRISES, INC. Jewell Brent C President, AFS S 1800.0 39.96 71928.0
09/28/2021 SNV SYNOVUS FINANCIAL CORP Stelling Kessel D Executive Chairman S 11398.0 45.0 512910.0
09/28/2021 MORN Morningstar, Inc. Mansueto Joseph D Executive Chairman S 310.0 271.53 84174.29999999999
09/28/2021 ILMN ILLUMINA, INC. TOUSI SUSAN H SVP, Chief Commercial Officer S 100.0 418.04 41804.0
09/28/2021 CAMP CalAmp Corp. GARDNER JEFFERY R President & CEO P 1500.0 10.04 15059.999999999998
09/28/2021 DRI DARDEN RESTAURANTS INC Martin Melvin John President, SRG S 200.0 159.885 31977.0
09/28/2021 BL BLACKLINE, INC. Tucker Therese Executive Chair S 4753.0 116.9507 555866.6771
09/27/2021 DRI DARDEN RESTAURANTS INC King Sarah H. SVP, Chief People Officer S 3000.0 157.996 473988.0
09/27/2021 CRAI CRA INTERNATIONAL, INC. Yellin Jonathan D EVP and General Counsel S 200.0 96.9075 19381.5
09/27/2021 COUP Coupa Software Inc Baratta Maurizio Chief Accounting Officer S 129.0 245.08 31615.320000000003
09/27/2021 SCHW SCHWAB CHARLES CORP Schwab Charles R. Chairman S 28000.0 77.0405 2157134.0
09/27/2021 UNF UNIFIRST CORP Ross William Masters Executive Vice President S 64.0 225.0 14400.0
09/27/2021 LNC LINCOLN NATIONAL CORP GLASS DENNIS R President & CEO S 150000.0 72.05 10807500.0
09/27/2021 CRAI CRA INTERNATIONAL, INC. HAWTHORNE NANCY None S 400.0 97.1894 38875.76
09/27/2021 PSMT PRICESMART INC PRICE ROBERT E None S 5000.0 81.4199 407099.5
09/27/2021 TDC TERADATA CORP /DE/ CHOU TIMOTHY C K None S 2728.0 55.13 150394.64
09/27/2021 PSMT PRICESMART INC Price Philanthropies Foundation None S 6099.0 81.1465 494912.5035
09/27/2021 DRI DARDEN RESTAURANTS INC Simon William S None S 6250.0 159.9376 999610.0
09/27/2021 CROX Crocs, Inc. MEHLMAN ANNE CFO S 2064.0 156.2856 322573.47839999996
09/27/2021 NTAP NetApp, Inc. Kurian George CEO S 4250.0 93.479 397285.75
09/27/2021 TTC TORO CO COOPER JANET KATHERINE None S 1701.0 98.6654 167829.84540000002
09/27/2021 BKE BUCKLE INC NELSON DENNIS H PRESIDENT & CEO S 15000.0 44.143 662145.0
09/27/2021 EGHT 8X8 INC /DE/ Deklich Dejan Chief Products Officer S 5599.0 25.0096 140028.7504
09/27/2021 COUP Coupa Software Inc Tiscornia Anthony D Chief Financial Officer S 1073.0 245.08 262970.84
09/27/2021 BOH BANK OF HAWAII CORP Sellers Mary E Vice Chair & CRO S 5000.0 82.47 412350.0
09/27/2021 EGHT 8X8 INC /DE/ Wilson Samuel C. Chief Financial Officer S 5566.0 24.69 137424.54
09/24/2021 EAT BRINKER INTERNATIONAL, INC Roberts Wyman President, CEO, Pres. Chili's S 6250.0 52.93 330812.5
09/24/2021 BLKB BLACKBAUD INC Gregoire Kevin P. President, U.S. Markets S 3268.0 73.0 238564.0
09/24/2021 ADBE ADOBE INC. WARNOCK JOHN E None S 499.0 626.6997 312723.1503
09/24/2021 ADBE ADOBE INC. Belsky Scott EVP, CPO, Creative Cloud S 2750.0 628.0 1727000.0
09/24/2021 WSM WILLIAMS SONOMA INC Ross Ryan PRESIDENT WS BRAND S 2540.0 191.18 485597.2
09/24/2021 ADBE ADOBE INC. NARAYEN SHANTANU Chairman, President and CEO S 12685.0 618.8443 7850039.945499999
09/24/2021 ADBE ADOBE INC. Chen Gloria EVP, Chief People Officer S 42.0 628.0 26376.0
09/24/2021 QLYS QUALYS, INC. Philippe Courtot Family Trust None S 1000.0 120.2414 120241.4
09/24/2021 M Macy's, Inc. Griscom Paul SVP and Controller S 1700.0 23.831 40512.7
09/24/2021 HIBB HIBBETT INC Benck David Mitchell SVP General Counsel P 2000.0 74.3381 148676.19999999998
09/24/2021 MORN Morningstar, Inc. Mansueto Joseph D Executive Chairman S 1419.0 277.1331 393251.8689
09/24/2021 AZO AUTOZONE INC RHODES WILLIAM C III Chairman, President & CEO S 31.0 1682.23 52149.13
09/24/2021 LULU lululemon athletica inc. Henry Kathryn None S 250.0 432.41 108102.5
09/24/2021 MU MICRON TECHNOLOGY INC ARNZEN APRIL S SVP, Chief People Officer S 8300.0 73.32 608556.0
09/24/2021 UNFI UNITED NATURAL FOODS INC Dorne Eric A. COO S 630.0 38.0 23940.0
09/24/2021 CDNS CADENCE DESIGN SYSTEMS INC Cunningham Paul Sr. Vice President S 1000.0 162.39 162390.0
09/23/2021 NEOG NEOGEN CORP Tobin James P None P 1000.0 42.92 42920.0
09/23/2021 SCHW SCHWAB CHARLES CORP Schwab Charles R. Chairman S 14000.0 72.0 1008000.0
09/23/2021 BL BLACKLINE, INC. Partin Mark Chief Financial Officer S 3455.0 125.6285 434046.4675
09/23/2021 DRI DARDEN RESTAURANTS INC Cardenas Ricardo President and COO S 2663.0 158.65 422484.95
09/23/2021 PBPB POTBELLY CORP Douglas Jeffrey SVP, Chief Information Officer S 3750.0 6.86 25725.0
09/23/2021 TTGT TechTarget Inc MARINO ROGER M None S 10825.0 90.18 976198.5000000001
09/23/2021 TNET TRINET GROUP, INC. Goldfield Burton M. PRESIDENT, CEO and DIRECTOR S 3085.0 95.5424 294748.304
09/23/2021 BR BROADRIDGE FINANCIAL SOLUTIONS, INC. Gokey Timothy C CEO S 49897.0 167.6056 8363016.6232
09/23/2021 TRIP TripAdvisor, Inc. Soni Kanika Chief Commercial Officer S 10000.0 35.0 350000.0
09/23/2021 CW CURTISS WRIGHT CORP Ferdenzi Paul J Vice President and Corp. Sec. S 2200.0 125.0 275000.0
09/23/2021 COUP Coupa Software Inc Glenn Robert EVP Global Sales S 571.0 245.17 139992.07
09/23/2021 TTC TORO CO COOPER JANET KATHERINE None S 1701.0 100.0038 170106.4638
09/23/2021 WMT Walmart Inc. McMillon C Douglas President and CEO S 9708.0 143.2701 1390866.1308000002
09/22/2021 LBAI LAKELAND BANCORP INC Gragnolati Brian None P 2000.0 16.4488 32897.6
09/22/2021 AZO AUTOZONE INC PLEAS CHARLES III Sr. VP & Controller S 4.0 1691.67 6766.68
09/22/2021 SCHW SCHWAB CHARLES CORP Schwab Charles R. Chairman S 14000.0 70.0205 980287.0
09/22/2021 AMN AMN HEALTHCARE SERVICES INC Jackson Denise L Chief Legal Officer S 1000.0 113.45 113450.0
09/22/2021 FRPT Freshpet, Inc. Morris Scott James President and COO S 3989.0 155.29 619451.8099999999
09/22/2021 ILMN ILLUMINA, INC. Dadswell Charles SVP & General Counsel S 314.0 436.69 137120.66
09/22/2021 ULTA Ulta Beauty, Inc. CHILDS JEFFREY J Chief Human Resources Officer S 8148.0 370.0656 3015294.5088
09/22/2021 SXI STANDEX INTERNATIONAL CORP/DE/ Sarcevic Ademir Vice President/CFO/Treasurer S 950.0 99.0 94050.0
09/22/2021 MORN Morningstar, Inc. Mansueto Joseph D Executive Chairman S 2860.0 272.0285 778001.51
09/21/2021 COUP Coupa Software Inc BERNSHTEYN ROBERT Chief Executive Officer S 2897.0 246.0124 712697.9228000001
09/21/2021 NTAP NetApp, Inc. Palin Carrie None S 1867.0 88.735 165668.245
09/21/2021 COUP Coupa Software Inc Riggs Mark Chief Customer Officer S 453.0 246.0124 111443.61720000001
09/21/2021 BL BLACKLINE, INC. Tucker Therese Executive Chair S 2726.0 119.7172 326349.0872
09/21/2021 FTNT Fortinet, Inc. Whittle John VP Corp Dev&Strat Alliance,GC S 2411.0 302.0 728122.0
09/21/2021 HUBS HUBSPOT INC Halligan Brian Executive Chair S 1400.0 679.61 951454.0
09/21/2021 COUP Coupa Software Inc Ford Todd R President Finance & Operations S 1018.0 246.0124 250440.6232
09/21/2021 COUP Coupa Software Inc Tiscornia Anthony D Chief Financial Officer S 384.0 246.0124 94468.7616
09/21/2021 COUP Coupa Software Inc van Veenendaal Frank None S 2000.0 250.0 500000.0
09/21/2021 COUP Coupa Software Inc Baratta Maurizio Chief Accounting Officer S 360.0 246.0124 88564.464
09/21/2021 BBY BEST BUY CO INC Eldracher Deborah DiSanzo President, Best Buy Health S 1776.0 107.177 190346.352
09/21/2021 BBY BEST BUY CO INC Peterson Allison Chief Customer Officer S 120.0 107.177 12861.240000000002
09/21/2021 EXPE Expedia Group, Inc. Dzielak Robert J Chief Legal Officer & Sec'y S 6007.0 155.0992 931680.8944
09/21/2021 WSM WILLIAMS SONOMA INC Ross Ryan PRESIDENT WS BRAND S 2700.0 185.57 501039.0
09/21/2021 COUP Coupa Software Inc Glenn Robert EVP Global Sales S 617.0 246.0124 151789.6508
09/21/2021 TDY TELEDYNE TECHNOLOGIES INC PICHELLI ALDO President and CEO S 3748.0 419.5344 1572414.9312
09/20/2021 EWBC EAST WEST BANCORP INC CAMPBELL MOLLY None S 150.0 67.45 10117.5
09/20/2021 TTGT TechTarget Inc MARINO ROGER M None S 40000.0 83.68 3347200.0000000005
09/20/2021 WMT Walmart Inc. WALTON S ROBSON None S 233927.0 142.4149 33314690.312299997
09/20/2021 EGHT 8X8 INC /DE/ Deklich Dejan Chief Products Officer S 3569.0 24.0598 85869.4262
09/20/2021 MORN Morningstar, Inc. Mansueto Joseph D Executive Chairman S 1095.0 275.0543 301184.4585
09/20/2021 EGHT 8X8 INC /DE/ Wilson Samuel C. Chief Financial Officer S 877.0 24.0614 21101.8478
09/20/2021 WMT Walmart Inc. WALTON ALICE L None S 233927.0 142.4149 33314690.312299997
09/20/2021 QLYS QUALYS, INC. POSEY BRUCE K VP, GC and Corp. Sec. S 3784.0 114.3638 432752.6192
09/20/2021 HQY HEALTHEQUITY, INC. MOTT DARCY G None S 5665.0 62.0033 351248.69450000004
09/20/2021 BOH BANK OF HAWAII CORP HO PETER S Chairman, CEO and President S 5833.0 76.0 443308.0
09/20/2021 EGHT 8X8 INC /DE/ Zinn Matthew SVP-GC,Secretary and CPO S 591.0 24.0598 14219.3418
09/20/2021 LBAI LAKELAND BANCORP INC Gragnolati Brian None P 2000.0 16.0474 32094.8
09/20/2021 ZEN Zendesk, Inc. Abildgaard Soren EVP of Engineering S 251.0 121.83 30579.329999999998
09/20/2021 NTGR NETGEAR, INC. Kim Andrew Wonki SVP, Legal and Corp Dev S 25.0 32.0 800.0
09/20/2021 MPWR MONOLITHIC POWER SYSTEMS INC BLEGEN THEODORE CFO S 540.0 481.08 259783.19999999998
09/20/2021 MRTN MARTEN TRANSPORT LTD BAUER JERRY M None P 15000.0 15.07 226050.0
09/20/2021 SLG SL GREEN REALTY CORP ATKINS BETSY S None S 3229.0 66.85 215858.65
09/20/2021 EGHT 8X8 INC /DE/ MARTIN BRYAN R Chief Technology Officer S 2380.0 24.0588 57259.944
09/20/2021 WMT Walmart Inc. WALTON JIM C None S 233927.0 142.4149 33314690.312299997
09/17/2021 QLYS QUALYS, INC. Philippe Courtot Family Trust None S 33989.0 120.3331 4090001.7359
09/17/2021 CROX Crocs, Inc. Poole Michelle President S 8407.0 160.0 1345120.0
09/17/2021 BL BLACKLINE, INC. Partin Mark Chief Financial Officer S 820.0 125.5406 102943.292
09/17/2021 UNH UNITEDHEALTH GROUP INC BURKE RICHARD T None S 2500.0 419.0 1047500.0
09/17/2021 LBAI LAKELAND BANCORP INC Ho-Sing-Loy Paul EVP Chief Information Officer P 800.0 16.53 13224.0
09/17/2021 COUP Coupa Software Inc BERNSHTEYN ROBERT Chief Executive Officer S 2409.0 240.6759 579788.2431000001
09/17/2021 ATEN A10 Networks, Inc. COCHRAN ROBERT D EVP Legal & Corp Collaboration S 1353.0 14.6 19753.8
09/17/2021 QLYS QUALYS, INC. Thakar Sumedh S CEO & President S 705.0 120.4628 84926.274
09/17/2021 ATEN A10 Networks, Inc. BRUENING MATTHEW P EVP, Worldwide Sales & Mktg S 1394.0 14.6 20352.399999999998
09/17/2021 ATEN A10 Networks, Inc. Trivedi Dhrupad Chief Executive Officer S 5164.0 14.6 75394.4
09/17/2021 DECK DECKERS OUTDOOR CORP Fasching Steven J. Chief Financial Officer S 1000.0 450.0 450000.0
09/17/2021 ATEN A10 Networks, Inc. Becker Brian Chief Financial Officer S 1083.0 14.6 15811.8
09/16/2021 WMT Walmart Inc. WALTON S ROBSON None S 173571.0 145.0865 25182808.8915
09/16/2021 WMT Walmart Inc. WALTON ALICE L None S 173571.0 145.0865 25182808.8915
09/16/2021 MORN Morningstar, Inc. Mansueto Joseph D Executive Chairman S 2201.0 274.7936 604820.7136
09/16/2021 WMT Walmart Inc. WALTON JIM C None S 173571.0 145.0865 25182808.8915
09/16/2021 QRVO Qorvo, Inc. Nelson Roderick None S 1587.0 180.0 285660.0
09/16/2021 ETSY ETSY INC Silverman Josh President & CEO S 409.0 216.81 88675.29000000001
09/16/2021 AMN AMN HEALTHCARE SERVICES INC Jackson Denise L Chief Legal Officer S 1000.0 111.6327 111632.7
09/16/2021 EGHT 8X8 INC /DE/ Wilson Samuel C. Chief Financial Officer S 2987.0 24.0719 71902.7653
09/16/2021 SMP STANDARD MOTOR PRODUCTS, INC. SILLS PETER J None S 2841.0 40.84 116026.44000000002
09/16/2021 CROX Crocs, Inc. Bickley Ian None S 5000.0 156.47 782350.0
09/16/2021 AMKR AMKOR TECHNOLOGY, INC. Faust Megan CFO S 5000.0 28.63 143150.0
09/16/2021 YELP YELP INC Eaton Sam Chief Technology Officer S 4085.0 36.141 147635.985
09/16/2021 LBAI LAKELAND BANCORP INC Gragnolati Brian None P 2000.0 16.5545 33109.0
09/15/2021 BKNG Booking Holdings Inc. Fogel Glenn D CEO and President S 100.0 2327.57 232757.00000000003
09/15/2021 JBLU JETBLUE AIRWAYS CORP Hayes Robin CEO S 1000.0 14.78 14780.0
09/15/2021 ZEN Zendesk, Inc. Svane Mikkel Chair and CEO S 20541.0 116.3879 2390723.8539
09/15/2021 NSP INSPERITY, INC. RAWSON RICHARD G None S 2500.0 106.62 266550.0
09/15/2021 NTAP NetApp, Inc. CERNUDA CESAR President S 14000.0 91.8263 1285568.2
09/15/2021 KR KROGER CO FIKE CARIN L Vice President and Treasurer S 783.0 42.042 32918.886
09/15/2021 ATRC AtriCure, Inc. GROVES REGINA E None S 3156.0 74.73 235847.88
09/15/2021 CSWI CSW INDUSTRIALS, INC. Armes Joseph B Chairman, President & CEO S 1100.0 127.71 140481.0
09/15/2021 ICUI ICU MEDICAL INC/DE SWINNEY ROBERT S None S 2157.0 243.0 524151.0
09/15/2021 EXPE Expedia Group, Inc. Athey Susan C None S 300.0 149.73 44919.0
09/15/2021 AMKR AMKOR TECHNOLOGY, INC. Rutten Guillaume Marie Jean President and CEO S 25000.0 28.46 711500.0
09/15/2021 SSTK Shutterstock, Inc. Silvio Peter Chief Technology Officer S 900.0 113.13 101817.0
09/15/2021 FFIV F5 NETWORKS, INC. Pelzer Francis J. EVP, Chief Financial Officer S 1200.0 201.69 242028.0






Nothing on this website is to be taken as investment advice.   All users are responsible for their trading and investment decisions.  Terms of UsePrivacy Policy  © 2020 insider-sleuth.com